<?xml version="1.0" encoding="UTF-8" standalone="no" ?>
<gpx xmlns="http://www.topografix.com/GPX/1/1" xmlns:xsi="http://www.w3.org/2001/XMLSchema-instance" xsi:schemaLocation="http://www.topografix.com/GPX/1/1 http://www.topografix.com/GPX/1/1/gpx.xsd" version="1.1" creator="VisuGPX - https://www.visugpx.com">
  <metadata>
    <name>14880306-60km</name>
  </metadata>
  <trk>
    <name><![CDATA[14880306-60km]]></name>
    <trkseg>
      <trkpt lat="47.04519" lon="-0.81798">
        <ele>118</ele>
        <time>2022-09-19T08:52:19Z</time>
      </trkpt>
      <trkpt lat="47.04528" lon="-0.81788">
        <ele>118</ele>
        <time>2022-09-19T08:52:22Z</time>
      </trkpt>
      <trkpt lat="47.04544" lon="-0.81796">
        <ele>119</ele>
        <time>2022-09-19T08:52:26Z</time>
      </trkpt>
      <trkpt lat="47.04535" lon="-0.81918">
        <ele>121</ele>
        <time>2022-09-19T08:52:45Z</time>
      </trkpt>
      <trkpt lat="47.04534" lon="-0.8196">
        <ele>119</ele>
        <time>2022-09-19T08:52:52Z</time>
      </trkpt>
      <trkpt lat="47.04541" lon="-0.8201">
        <ele>118</ele>
        <time>2022-09-19T08:53:00Z</time>
      </trkpt>
      <trkpt lat="47.04552" lon="-0.82047">
        <ele>116</ele>
        <time>2022-09-19T08:53:06Z</time>
      </trkpt>
      <trkpt lat="47.0457" lon="-0.82091">
        <ele>116</ele>
        <time>2022-09-19T08:53:15Z</time>
      </trkpt>
      <trkpt lat="47.04588" lon="-0.82124">
        <ele>115</ele>
        <time>2022-09-19T08:53:21Z</time>
      </trkpt>
      <trkpt lat="47.0459" lon="-0.8214">
        <ele>115</ele>
        <time>2022-09-19T08:53:24Z</time>
      </trkpt>
      <trkpt lat="47.04627" lon="-0.82239">
        <ele>116</ele>
        <time>2022-09-19T08:53:42Z</time>
      </trkpt>
      <trkpt lat="47.04654" lon="-0.8229">
        <ele>118</ele>
        <time>2022-09-19T08:53:52Z</time>
      </trkpt>
      <trkpt lat="47.0467" lon="-0.82306">
        <ele>119</ele>
        <time>2022-09-19T08:53:57Z</time>
      </trkpt>
      <trkpt lat="47.04674" lon="-0.82319">
        <ele>119</ele>
        <time>2022-09-19T08:53:59Z</time>
      </trkpt>
      <trkpt lat="47.04737" lon="-0.8241">
        <ele>122</ele>
        <time>2022-09-19T08:54:20Z</time>
      </trkpt>
      <trkpt lat="47.04756" lon="-0.82462">
        <ele>122</ele>
        <time>2022-09-19T08:54:29Z</time>
      </trkpt>
      <trkpt lat="47.04761" lon="-0.82485">
        <ele>122</ele>
        <time>2022-09-19T08:54:33Z</time>
      </trkpt>
      <trkpt lat="47.04762" lon="-0.82524">
        <ele>122</ele>
        <time>2022-09-19T08:54:39Z</time>
      </trkpt>
      <trkpt lat="47.04722" lon="-0.82686">
        <ele>129</ele>
        <time>2022-09-19T08:55:06Z</time>
      </trkpt>
      <trkpt lat="47.04721" lon="-0.82741">
        <ele>131</ele>
        <time>2022-09-19T08:55:15Z</time>
      </trkpt>
      <trkpt lat="47.04724" lon="-0.82822">
        <ele>132</ele>
        <time>2022-09-19T08:55:28Z</time>
      </trkpt>
      <trkpt lat="47.04721" lon="-0.82838">
        <ele>132</ele>
        <time>2022-09-19T08:55:31Z</time>
      </trkpt>
      <trkpt lat="47.04748" lon="-0.82852">
        <ele>133</ele>
        <time>2022-09-19T08:55:37Z</time>
      </trkpt>
      <trkpt lat="47.04792" lon="-0.82938">
        <ele>134</ele>
        <time>2022-09-19T08:55:54Z</time>
      </trkpt>
      <trkpt lat="47.0481" lon="-0.82951">
        <ele>135</ele>
        <time>2022-09-19T08:55:59Z</time>
      </trkpt>
      <trkpt lat="47.0483" lon="-0.83002">
        <ele>134</ele>
        <time>2022-09-19T08:56:09Z</time>
      </trkpt>
      <trkpt lat="47.04877" lon="-0.83086">
        <ele>134</ele>
        <time>2022-09-19T08:56:26Z</time>
      </trkpt>
      <trkpt lat="47.04873" lon="-0.83106">
        <ele>134</ele>
        <time>2022-09-19T08:56:29Z</time>
      </trkpt>
      <trkpt lat="47.04872" lon="-0.83152">
        <ele>134</ele>
        <time>2022-09-19T08:56:36Z</time>
      </trkpt>
      <trkpt lat="47.04891" lon="-0.83196">
        <ele>135</ele>
        <time>2022-09-19T08:56:45Z</time>
      </trkpt>
      <trkpt lat="47.04948" lon="-0.83313">
        <ele>135</ele>
        <time>2022-09-19T08:57:08Z</time>
      </trkpt>
      <trkpt lat="47.04937" lon="-0.83351">
        <ele>134</ele>
        <time>2022-09-19T08:57:14Z</time>
      </trkpt>
      <trkpt lat="47.0495" lon="-0.83389">
        <ele>134</ele>
        <time>2022-09-19T08:57:21Z</time>
      </trkpt>
      <trkpt lat="47.04907" lon="-0.83433">
        <ele>132</ele>
        <time>2022-09-19T08:57:33Z</time>
      </trkpt>
      <trkpt lat="47.04926" lon="-0.8351">
        <ele>132</ele>
        <time>2022-09-19T08:57:46Z</time>
      </trkpt>
      <trkpt lat="47.04958" lon="-0.83486">
        <ele>133</ele>
        <time>2022-09-19T08:57:55Z</time>
      </trkpt>
      <trkpt lat="47.05077" lon="-0.8341">
        <ele>136</ele>
        <time>2022-09-19T08:58:25Z</time>
      </trkpt>
      <trkpt lat="47.05196" lon="-0.83269">
        <ele>138</ele>
        <time>2022-09-19T08:59:01Z</time>
      </trkpt>
      <trkpt lat="47.05253" lon="-0.83221">
        <ele>138</ele>
        <time>2022-09-19T08:59:16Z</time>
      </trkpt>
      <trkpt lat="47.05279" lon="-0.83175">
        <ele>139</ele>
        <time>2022-09-19T08:59:26Z</time>
      </trkpt>
      <trkpt lat="47.05294" lon="-0.83126">
        <ele>139</ele>
        <time>2022-09-19T08:59:34Z</time>
      </trkpt>
      <trkpt lat="47.05303" lon="-0.8306">
        <ele>140</ele>
        <time>2022-09-19T08:59:45Z</time>
      </trkpt>
      <trkpt lat="47.05301" lon="-0.82984">
        <ele>141</ele>
        <time>2022-09-19T08:59:57Z</time>
      </trkpt>
      <trkpt lat="47.05315" lon="-0.82961">
        <ele>142</ele>
        <time>2022-09-19T09:00:02Z</time>
      </trkpt>
      <trkpt lat="47.05378" lon="-0.82922">
        <ele>143</ele>
        <time>2022-09-19T09:00:18Z</time>
      </trkpt>
      <trkpt lat="47.05454" lon="-0.82885">
        <ele>142</ele>
        <time>2022-09-19T09:00:36Z</time>
      </trkpt>
      <trkpt lat="47.05452" lon="-0.82878">
        <ele>142</ele>
        <time>2022-09-19T09:00:38Z</time>
      </trkpt>
      <trkpt lat="47.05573" lon="-0.82823">
        <ele>144</ele>
        <time>2022-09-19T09:01:07Z</time>
      </trkpt>
      <trkpt lat="47.056" lon="-0.82938">
        <ele>143</ele>
        <time>2022-09-19T09:01:27Z</time>
      </trkpt>
      <trkpt lat="47.05629" lon="-0.83018">
        <ele>143</ele>
        <time>2022-09-19T09:01:41Z</time>
      </trkpt>
      <trkpt lat="47.05668" lon="-0.83111">
        <ele>143</ele>
        <time>2022-09-19T09:01:58Z</time>
      </trkpt>
      <trkpt lat="47.05703" lon="-0.83274">
        <ele>141</ele>
        <time>2022-09-19T09:02:26Z</time>
      </trkpt>
      <trkpt lat="47.05701" lon="-0.83361">
        <ele>141</ele>
        <time>2022-09-19T09:02:39Z</time>
      </trkpt>
      <trkpt lat="47.05695" lon="-0.83456">
        <ele>142</ele>
        <time>2022-09-19T09:02:55Z</time>
      </trkpt>
      <trkpt lat="47.05707" lon="-0.8353">
        <ele>141</ele>
        <time>2022-09-19T09:03:07Z</time>
      </trkpt>
      <trkpt lat="47.05719" lon="-0.83565">
        <ele>141</ele>
        <time>2022-09-19T09:03:13Z</time>
      </trkpt>
      <trkpt lat="47.05788" lon="-0.83466">
        <ele>144</ele>
        <time>2022-09-19T09:03:35Z</time>
      </trkpt>
      <trkpt lat="47.05909" lon="-0.83337">
        <ele>146</ele>
        <time>2022-09-19T09:04:10Z</time>
      </trkpt>
      <trkpt lat="47.05987" lon="-0.83242">
        <ele>147</ele>
        <time>2022-09-19T09:04:34Z</time>
      </trkpt>
      <trkpt lat="47.06026" lon="-0.83188">
        <ele>147</ele>
        <time>2022-09-19T09:04:47Z</time>
      </trkpt>
      <trkpt lat="47.06097" lon="-0.83013">
        <ele>148</ele>
        <time>2022-09-19T09:05:19Z</time>
      </trkpt>
      <trkpt lat="47.06108" lon="-0.83018">
        <ele>147</ele>
        <time>2022-09-19T09:05:22Z</time>
      </trkpt>
      <trkpt lat="47.06125" lon="-0.83153">
        <ele>147</ele>
        <time>2022-09-19T09:05:44Z</time>
      </trkpt>
      <trkpt lat="47.06403" lon="-0.83049">
        <ele>140</ele>
        <time>2022-09-19T09:06:51Z</time>
      </trkpt>
      <trkpt lat="47.06427" lon="-0.83068">
        <ele>140</ele>
        <time>2022-09-19T09:06:57Z</time>
      </trkpt>
      <trkpt lat="47.0645" lon="-0.83123">
        <ele>139</ele>
        <time>2022-09-19T09:07:07Z</time>
      </trkpt>
      <trkpt lat="47.06473" lon="-0.8313">
        <ele>138</ele>
        <time>2022-09-19T09:07:13Z</time>
      </trkpt>
      <trkpt lat="47.06499" lon="-0.83242">
        <ele>137</ele>
        <time>2022-09-19T09:07:31Z</time>
      </trkpt>
      <trkpt lat="47.06525" lon="-0.8328">
        <ele>136</ele>
        <time>2022-09-19T09:07:40Z</time>
      </trkpt>
      <trkpt lat="47.06649" lon="-0.8326">
        <ele>133</ele>
        <time>2022-09-19T09:08:09Z</time>
      </trkpt>
      <trkpt lat="47.06737" lon="-0.83261">
        <ele>131</ele>
        <time>2022-09-19T09:08:30Z</time>
      </trkpt>
      <trkpt lat="47.06776" lon="-0.8327">
        <ele>130</ele>
        <time>2022-09-19T09:08:39Z</time>
      </trkpt>
      <trkpt lat="47.06799" lon="-0.8325">
        <ele>129</ele>
        <time>2022-09-19T09:08:45Z</time>
      </trkpt>
      <trkpt lat="47.06792" lon="-0.832">
        <ele>131</ele>
        <time>2022-09-19T09:08:53Z</time>
      </trkpt>
      <trkpt lat="47.06884" lon="-0.83182">
        <ele>128</ele>
        <time>2022-09-19T09:09:15Z</time>
      </trkpt>
      <trkpt lat="47.06927" lon="-0.83189">
        <ele>126</ele>
        <time>2022-09-19T09:09:25Z</time>
      </trkpt>
      <trkpt lat="47.07168" lon="-0.83156">
        <ele>122</ele>
        <time>2022-09-19T09:10:22Z</time>
      </trkpt>
      <trkpt lat="47.07266" lon="-0.83137">
        <ele>120</ele>
        <time>2022-09-19T09:10:45Z</time>
      </trkpt>
      <trkpt lat="47.07329" lon="-0.83156">
        <ele>118</ele>
        <time>2022-09-19T09:11:00Z</time>
      </trkpt>
      <trkpt lat="47.07571" lon="-0.83111">
        <ele>116</ele>
        <time>2022-09-19T09:11:57Z</time>
      </trkpt>
      <trkpt lat="47.07628" lon="-0.83095">
        <ele>115</ele>
        <time>2022-09-19T09:12:10Z</time>
      </trkpt>
      <trkpt lat="47.07644" lon="-0.83134">
        <ele>114</ele>
        <time>2022-09-19T09:12:17Z</time>
      </trkpt>
      <trkpt lat="47.07665" lon="-0.83131">
        <ele>113</ele>
        <time>2022-09-19T09:12:22Z</time>
      </trkpt>
      <trkpt lat="47.07651" lon="-0.83086">
        <ele>114</ele>
        <time>2022-09-19T09:12:30Z</time>
      </trkpt>
      <trkpt lat="47.07623" lon="-0.83056">
        <ele>115</ele>
        <time>2022-09-19T09:12:38Z</time>
      </trkpt>
      <trkpt lat="47.0759" lon="-0.82956">
        <ele>117</ele>
        <time>2022-09-19T09:12:56Z</time>
      </trkpt>
      <trkpt lat="47.07559" lon="-0.82879">
        <ele>119</ele>
        <time>2022-09-19T09:13:10Z</time>
      </trkpt>
      <trkpt lat="47.07497" lon="-0.82814">
        <ele>121</ele>
        <time>2022-09-19T09:13:28Z</time>
      </trkpt>
      <trkpt lat="47.0745" lon="-0.82759">
        <ele>123</ele>
        <time>2022-09-19T09:13:42Z</time>
      </trkpt>
      <trkpt lat="47.07432" lon="-0.82709">
        <ele>124</ele>
        <time>2022-09-19T09:13:51Z</time>
      </trkpt>
      <trkpt lat="47.07424" lon="-0.82571">
        <ele>123</ele>
        <time>2022-09-19T09:14:13Z</time>
      </trkpt>
      <trkpt lat="47.0741" lon="-0.82448">
        <ele>123</ele>
        <time>2022-09-19T09:14:33Z</time>
      </trkpt>
      <trkpt lat="47.07395" lon="-0.82356">
        <ele>123</ele>
        <time>2022-09-19T09:14:48Z</time>
      </trkpt>
      <trkpt lat="47.07469" lon="-0.822">
        <ele>122</ele>
        <time>2022-09-19T09:15:18Z</time>
      </trkpt>
      <trkpt lat="47.07498" lon="-0.82118">
        <ele>124</ele>
        <time>2022-09-19T09:15:33Z</time>
      </trkpt>
      <trkpt lat="47.07522" lon="-0.82017">
        <ele>126</ele>
        <time>2022-09-19T09:15:50Z</time>
      </trkpt>
      <trkpt lat="47.07515" lon="-0.8184">
        <ele>128</ele>
        <time>2022-09-19T09:16:18Z</time>
      </trkpt>
      <trkpt lat="47.07535" lon="-0.81735">
        <ele>130</ele>
        <time>2022-09-19T09:16:35Z</time>
      </trkpt>
      <trkpt lat="47.07532" lon="-0.81684">
        <ele>130</ele>
        <time>2022-09-19T09:16:44Z</time>
      </trkpt>
      <trkpt lat="47.07514" lon="-0.81609">
        <ele>130</ele>
        <time>2022-09-19T09:16:56Z</time>
      </trkpt>
      <trkpt lat="47.07523" lon="-0.81515">
        <ele>130</ele>
        <time>2022-09-19T09:17:11Z</time>
      </trkpt>
      <trkpt lat="47.07455" lon="-0.81505">
        <ele>128</ele>
        <time>2022-09-19T09:17:27Z</time>
      </trkpt>
      <trkpt lat="47.07429" lon="-0.81095">
        <ele>129</ele>
        <time>2022-09-19T09:18:33Z</time>
      </trkpt>
      <trkpt lat="47.07422" lon="-0.80947">
        <ele>129</ele>
        <time>2022-09-19T09:18:56Z</time>
      </trkpt>
      <trkpt lat="47.0744" lon="-0.8069">
        <ele>135</ele>
        <time>2022-09-19T09:19:37Z</time>
      </trkpt>
      <trkpt lat="47.07472" lon="-0.80722">
        <ele>136</ele>
        <time>2022-09-19T09:19:47Z</time>
      </trkpt>
      <trkpt lat="47.07548" lon="-0.80851">
        <ele>138</ele>
        <time>2022-09-19T09:20:14Z</time>
      </trkpt>
      <trkpt lat="47.07575" lon="-0.80866">
        <ele>139</ele>
        <time>2022-09-19T09:20:20Z</time>
      </trkpt>
      <trkpt lat="47.07607" lon="-0.80841">
        <ele>141</ele>
        <time>2022-09-19T09:20:29Z</time>
      </trkpt>
      <trkpt lat="47.07679" lon="-0.80837">
        <ele>142</ele>
        <time>2022-09-19T09:20:46Z</time>
      </trkpt>
      <trkpt lat="47.07715" lon="-0.80842">
        <ele>143</ele>
        <time>2022-09-19T09:20:54Z</time>
      </trkpt>
      <trkpt lat="47.07761" lon="-0.80857">
        <ele>144</ele>
        <time>2022-09-19T09:21:05Z</time>
      </trkpt>
      <trkpt lat="47.07857" lon="-0.80869">
        <ele>148</ele>
        <time>2022-09-19T09:21:28Z</time>
      </trkpt>
      <trkpt lat="47.07891" lon="-0.80878">
        <ele>147</ele>
        <time>2022-09-19T09:21:36Z</time>
      </trkpt>
      <trkpt lat="47.07958" lon="-0.80877">
        <ele>147</ele>
        <time>2022-09-19T09:21:51Z</time>
      </trkpt>
      <trkpt lat="47.08134" lon="-0.80701">
        <ele>143</ele>
        <time>2022-09-19T09:22:41Z</time>
      </trkpt>
      <trkpt lat="47.08329" lon="-0.80623">
        <ele>143</ele>
        <time>2022-09-19T09:23:28Z</time>
      </trkpt>
      <trkpt lat="47.08494" lon="-0.80622">
        <ele>140</ele>
        <time>2022-09-19T09:24:07Z</time>
      </trkpt>
      <trkpt lat="47.08588" lon="-0.80603">
        <ele>137</ele>
        <time>2022-09-19T09:24:29Z</time>
      </trkpt>
      <trkpt lat="47.08717" lon="-0.80586">
        <ele>131</ele>
        <time>2022-09-19T09:24:59Z</time>
      </trkpt>
      <trkpt lat="47.08754" lon="-0.8056">
        <ele>130</ele>
        <time>2022-09-19T09:25:09Z</time>
      </trkpt>
      <trkpt lat="47.08821" lon="-0.80506">
        <ele>127</ele>
        <time>2022-09-19T09:25:27Z</time>
      </trkpt>
      <trkpt lat="47.08833" lon="-0.80461">
        <ele>127</ele>
        <time>2022-09-19T09:25:34Z</time>
      </trkpt>
      <trkpt lat="47.08874" lon="-0.80409">
        <ele>129</ele>
        <time>2022-09-19T09:25:47Z</time>
      </trkpt>
      <trkpt lat="47.0902" lon="-0.80282">
        <ele>134</ele>
        <time>2022-09-19T09:26:27Z</time>
      </trkpt>
      <trkpt lat="47.09076" lon="-0.80213">
        <ele>135</ele>
        <time>2022-09-19T09:26:44Z</time>
      </trkpt>
      <trkpt lat="47.09103" lon="-0.80149">
        <ele>136</ele>
        <time>2022-09-19T09:26:56Z</time>
      </trkpt>
      <trkpt lat="47.09136" lon="-0.80117">
        <ele>136</ele>
        <time>2022-09-19T09:27:05Z</time>
      </trkpt>
      <trkpt lat="47.0919" lon="-0.80186">
        <ele>135</ele>
        <time>2022-09-19T09:27:22Z</time>
      </trkpt>
      <trkpt lat="47.09252" lon="-0.8022">
        <ele>136</ele>
        <time>2022-09-19T09:27:37Z</time>
      </trkpt>
      <trkpt lat="47.09291" lon="-0.80229">
        <ele>135</ele>
        <time>2022-09-19T09:27:46Z</time>
      </trkpt>
      <trkpt lat="47.09298" lon="-0.80189">
        <ele>135</ele>
        <time>2022-09-19T09:27:53Z</time>
      </trkpt>
      <trkpt lat="47.09298" lon="-0.80151">
        <ele>134</ele>
        <time>2022-09-19T09:27:59Z</time>
      </trkpt>
      <trkpt lat="47.09327" lon="-0.80049">
        <ele>134</ele>
        <time>2022-09-19T09:28:16Z</time>
      </trkpt>
      <trkpt lat="47.09349" lon="-0.79981">
        <ele>134</ele>
        <time>2022-09-19T09:28:28Z</time>
      </trkpt>
      <trkpt lat="47.0938" lon="-0.79986">
        <ele>133</ele>
        <time>2022-09-19T09:28:36Z</time>
      </trkpt>
      <trkpt lat="47.09397" lon="-0.80022">
        <ele>133</ele>
        <time>2022-09-19T09:28:43Z</time>
      </trkpt>
      <trkpt lat="47.09479" lon="-0.80095">
        <ele>132</ele>
        <time>2022-09-19T09:29:05Z</time>
      </trkpt>
      <trkpt lat="47.09509" lon="-0.80108">
        <ele>132</ele>
        <time>2022-09-19T09:29:12Z</time>
      </trkpt>
      <trkpt lat="47.09589" lon="-0.80094">
        <ele>131</ele>
        <time>2022-09-19T09:29:31Z</time>
      </trkpt>
      <trkpt lat="47.09628" lon="-0.80233">
        <ele>128</ele>
        <time>2022-09-19T09:29:55Z</time>
      </trkpt>
      <trkpt lat="47.09654" lon="-0.80311">
        <ele>127</ele>
        <time>2022-09-19T09:30:09Z</time>
      </trkpt>
      <trkpt lat="47.09743" lon="-0.80481">
        <ele>122</ele>
        <time>2022-09-19T09:30:43Z</time>
      </trkpt>
      <trkpt lat="47.09748" lon="-0.80513">
        <ele>122</ele>
        <time>2022-09-19T09:30:48Z</time>
      </trkpt>
      <trkpt lat="47.09758" lon="-0.8055">
        <ele>123</ele>
        <time>2022-09-19T09:30:55Z</time>
      </trkpt>
      <trkpt lat="47.09705" lon="-0.80692">
        <ele>122</ele>
        <time>2022-09-19T09:31:20Z</time>
      </trkpt>
      <trkpt lat="47.09777" lon="-0.80755">
        <ele>125</ele>
        <time>2022-09-19T09:31:40Z</time>
      </trkpt>
      <trkpt lat="47.09841" lon="-0.80773">
        <ele>127</ele>
        <time>2022-09-19T09:31:55Z</time>
      </trkpt>
      <trkpt lat="47.09863" lon="-0.80907">
        <ele>127</ele>
        <time>2022-09-19T09:32:17Z</time>
      </trkpt>
      <trkpt lat="47.0976" lon="-0.81042">
        <ele>125</ele>
        <time>2022-09-19T09:32:49Z</time>
      </trkpt>
      <trkpt lat="47.09709" lon="-0.81088">
        <ele>123</ele>
        <time>2022-09-19T09:33:03Z</time>
      </trkpt>
      <trkpt lat="47.09644" lon="-0.81092">
        <ele>120</ele>
        <time>2022-09-19T09:33:18Z</time>
      </trkpt>
      <trkpt lat="47.09631" lon="-0.8111">
        <ele>119</ele>
        <time>2022-09-19T09:33:23Z</time>
      </trkpt>
      <trkpt lat="47.09621" lon="-0.81154">
        <ele>119</ele>
        <time>2022-09-19T09:33:30Z</time>
      </trkpt>
      <trkpt lat="47.09591" lon="-0.81232">
        <ele>117</ele>
        <time>2022-09-19T09:33:44Z</time>
      </trkpt>
      <trkpt lat="47.09574" lon="-0.81306">
        <ele>114</ele>
        <time>2022-09-19T09:33:57Z</time>
      </trkpt>
      <trkpt lat="47.09588" lon="-0.81427">
        <ele>114</ele>
        <time>2022-09-19T09:34:16Z</time>
      </trkpt>
      <trkpt lat="47.09644" lon="-0.81474">
        <ele>118</ele>
        <time>2022-09-19T09:34:31Z</time>
      </trkpt>
      <trkpt lat="47.09675" lon="-0.81479">
        <ele>119</ele>
        <time>2022-09-19T09:34:38Z</time>
      </trkpt>
      <trkpt lat="47.09719" lon="-0.81739">
        <ele>115</ele>
        <time>2022-09-19T09:35:21Z</time>
      </trkpt>
      <trkpt lat="47.09702" lon="-0.81913">
        <ele>115</ele>
        <time>2022-09-19T09:35:49Z</time>
      </trkpt>
      <trkpt lat="47.09746" lon="-0.81911">
        <ele>113</ele>
        <time>2022-09-19T09:35:59Z</time>
      </trkpt>
      <trkpt lat="47.10137" lon="-0.8144">
        <ele>118</ele>
        <time>2022-09-19T09:37:57Z</time>
      </trkpt>
      <trkpt lat="47.10146" lon="-0.81418">
        <ele>119</ele>
        <time>2022-09-19T09:38:01Z</time>
      </trkpt>
      <trkpt lat="47.1017" lon="-0.81418">
        <ele>119</ele>
        <time>2022-09-19T09:38:07Z</time>
      </trkpt>
      <trkpt lat="47.10296" lon="-0.81281">
        <ele>121</ele>
        <time>2022-09-19T09:38:44Z</time>
      </trkpt>
      <trkpt lat="47.10302" lon="-0.81264">
        <ele>121</ele>
        <time>2022-09-19T09:38:47Z</time>
      </trkpt>
      <trkpt lat="47.10524" lon="-0.8106">
        <ele>124</ele>
        <time>2022-09-19T09:39:48Z</time>
      </trkpt>
      <trkpt lat="47.10678" lon="-0.8091">
        <ele>128</ele>
        <time>2022-09-19T09:40:31Z</time>
      </trkpt>
      <trkpt lat="47.1089" lon="-0.80732">
        <ele>122</ele>
        <time>2022-09-19T09:41:28Z</time>
      </trkpt>
      <trkpt lat="47.11001" lon="-0.80648">
        <ele>117</ele>
        <time>2022-09-19T09:41:57Z</time>
      </trkpt>
      <trkpt lat="47.11011" lon="-0.80615">
        <ele>116</ele>
        <time>2022-09-19T09:42:03Z</time>
      </trkpt>
      <trkpt lat="47.11112" lon="-0.80359">
        <ele>114</ele>
        <time>2022-09-19T09:42:50Z</time>
      </trkpt>
      <trkpt lat="47.11225" lon="-0.80204">
        <ele>113</ele>
        <time>2022-09-19T09:43:26Z</time>
      </trkpt>
      <trkpt lat="47.11257" lon="-0.80114">
        <ele>113</ele>
        <time>2022-09-19T09:43:42Z</time>
      </trkpt>
      <trkpt lat="47.11324" lon="-0.80017">
        <ele>112</ele>
        <time>2022-09-19T09:44:04Z</time>
      </trkpt>
      <trkpt lat="47.11364" lon="-0.79997">
        <ele>111</ele>
        <time>2022-09-19T09:44:14Z</time>
      </trkpt>
      <trkpt lat="47.11387" lon="-0.79944">
        <ele>112</ele>
        <time>2022-09-19T09:44:24Z</time>
      </trkpt>
      <trkpt lat="47.11461" lon="-0.79827">
        <ele>113</ele>
        <time>2022-09-19T09:44:49Z</time>
      </trkpt>
      <trkpt lat="47.11627" lon="-0.79941">
        <ele>107</ele>
        <time>2022-09-19T09:45:32Z</time>
      </trkpt>
      <trkpt lat="47.11711" lon="-0.80006">
        <ele>105</ele>
        <time>2022-09-19T09:45:54Z</time>
      </trkpt>
      <trkpt lat="47.11732" lon="-0.80034">
        <ele>104</ele>
        <time>2022-09-19T09:46:01Z</time>
      </trkpt>
      <trkpt lat="47.1175" lon="-0.80094">
        <ele>104</ele>
        <time>2022-09-19T09:46:11Z</time>
      </trkpt>
      <trkpt lat="47.11759" lon="-0.80085">
        <ele>104</ele>
        <time>2022-09-19T09:46:14Z</time>
      </trkpt>
      <trkpt lat="47.11767" lon="-0.8011">
        <ele>103</ele>
        <time>2022-09-19T09:46:18Z</time>
      </trkpt>
      <trkpt lat="47.11852" lon="-0.80035">
        <ele>102</ele>
        <time>2022-09-19T09:46:41Z</time>
      </trkpt>
      <trkpt lat="47.11866" lon="-0.80008">
        <ele>103</ele>
        <time>2022-09-19T09:46:47Z</time>
      </trkpt>
      <trkpt lat="47.11893" lon="-0.79981">
        <ele>103</ele>
        <time>2022-09-19T09:46:54Z</time>
      </trkpt>
      <trkpt lat="47.11907" lon="-0.7995">
        <ele>103</ele>
        <time>2022-09-19T09:47:00Z</time>
      </trkpt>
      <trkpt lat="47.11904" lon="-0.79926">
        <ele>103</ele>
        <time>2022-09-19T09:47:04Z</time>
      </trkpt>
      <trkpt lat="47.11916" lon="-0.799">
        <ele>103</ele>
        <time>2022-09-19T09:47:09Z</time>
      </trkpt>
      <trkpt lat="47.1189" lon="-0.79862">
        <ele>104</ele>
        <time>2022-09-19T09:47:18Z</time>
      </trkpt>
      <trkpt lat="47.11902" lon="-0.79771">
        <ele>103</ele>
        <time>2022-09-19T09:47:33Z</time>
      </trkpt>
      <trkpt lat="47.1192" lon="-0.79739">
        <ele>103</ele>
        <time>2022-09-19T09:47:39Z</time>
      </trkpt>
      <trkpt lat="47.11914" lon="-0.79712">
        <ele>103</ele>
        <time>2022-09-19T09:47:44Z</time>
      </trkpt>
      <trkpt lat="47.11922" lon="-0.7967">
        <ele>102</ele>
        <time>2022-09-19T09:47:51Z</time>
      </trkpt>
      <trkpt lat="47.11866" lon="-0.79581">
        <ele>103</ele>
        <time>2022-09-19T09:48:10Z</time>
      </trkpt>
      <trkpt lat="47.11866" lon="-0.79534">
        <ele>104</ele>
        <time>2022-09-19T09:48:17Z</time>
      </trkpt>
      <trkpt lat="47.11859" lon="-0.79524">
        <ele>104</ele>
        <time>2022-09-19T09:48:20Z</time>
      </trkpt>
      <trkpt lat="47.11859" lon="-0.795">
        <ele>105</ele>
        <time>2022-09-19T09:48:23Z</time>
      </trkpt>
      <trkpt lat="47.11855" lon="-0.79478">
        <ele>104</ele>
        <time>2022-09-19T09:48:27Z</time>
      </trkpt>
      <trkpt lat="47.11849" lon="-0.79469">
        <ele>104</ele>
        <time>2022-09-19T09:48:29Z</time>
      </trkpt>
      <trkpt lat="47.11846" lon="-0.79441">
        <ele>104</ele>
        <time>2022-09-19T09:48:34Z</time>
      </trkpt>
      <trkpt lat="47.1184" lon="-0.79428">
        <ele>103</ele>
        <time>2022-09-19T09:48:36Z</time>
      </trkpt>
      <trkpt lat="47.11837" lon="-0.79411">
        <ele>103</ele>
        <time>2022-09-19T09:48:39Z</time>
      </trkpt>
      <trkpt lat="47.11855" lon="-0.79374">
        <ele>104</ele>
        <time>2022-09-19T09:48:46Z</time>
      </trkpt>
      <trkpt lat="47.11872" lon="-0.7936">
        <ele>105</ele>
        <time>2022-09-19T09:48:51Z</time>
      </trkpt>
      <trkpt lat="47.1183" lon="-0.79277">
        <ele>106</ele>
        <time>2022-09-19T09:49:07Z</time>
      </trkpt>
      <trkpt lat="47.11826" lon="-0.79178">
        <ele>108</ele>
        <time>2022-09-19T09:49:23Z</time>
      </trkpt>
      <trkpt lat="47.11817" lon="-0.79144">
        <ele>108</ele>
        <time>2022-09-19T09:49:29Z</time>
      </trkpt>
      <trkpt lat="47.11804" lon="-0.79134">
        <ele>108</ele>
        <time>2022-09-19T09:49:32Z</time>
      </trkpt>
      <trkpt lat="47.11797" lon="-0.79107">
        <ele>109</ele>
        <time>2022-09-19T09:49:37Z</time>
      </trkpt>
      <trkpt lat="47.11767" lon="-0.79079">
        <ele>110</ele>
        <time>2022-09-19T09:49:45Z</time>
      </trkpt>
      <trkpt lat="47.11931" lon="-0.78989">
        <ele>115</ele>
        <time>2022-09-19T09:50:26Z</time>
      </trkpt>
      <trkpt lat="47.12053" lon="-0.78933">
        <ele>121</ele>
        <time>2022-09-19T09:50:56Z</time>
      </trkpt>
      <trkpt lat="47.12047" lon="-0.78905">
        <ele>121</ele>
        <time>2022-09-19T09:51:00Z</time>
      </trkpt>
      <trkpt lat="47.12022" lon="-0.78864">
        <ele>119</ele>
        <time>2022-09-19T09:51:09Z</time>
      </trkpt>
      <trkpt lat="47.12002" lon="-0.78655">
        <ele>113</ele>
        <time>2022-09-19T09:51:43Z</time>
      </trkpt>
      <trkpt lat="47.12005" lon="-0.78548">
        <ele>111</ele>
        <time>2022-09-19T09:52:00Z</time>
      </trkpt>
      <trkpt lat="47.12039" lon="-0.78265">
        <ele>111</ele>
        <time>2022-09-19T09:52:45Z</time>
      </trkpt>
      <trkpt lat="47.1212" lon="-0.78048">
        <ele>112</ele>
        <time>2022-09-19T09:53:25Z</time>
      </trkpt>
      <trkpt lat="47.12136" lon="-0.77959">
        <ele>112</ele>
        <time>2022-09-19T09:53:39Z</time>
      </trkpt>
      <trkpt lat="47.1213" lon="-0.77845">
        <ele>111</ele>
        <time>2022-09-19T09:53:57Z</time>
      </trkpt>
      <trkpt lat="47.12105" lon="-0.7775">
        <ele>110</ele>
        <time>2022-09-19T09:54:14Z</time>
      </trkpt>
      <trkpt lat="47.12092" lon="-0.77668">
        <ele>110</ele>
        <time>2022-09-19T09:54:27Z</time>
      </trkpt>
      <trkpt lat="47.12154" lon="-0.77476">
        <ele>113</ele>
        <time>2022-09-19T09:55:01Z</time>
      </trkpt>
      <trkpt lat="47.12159" lon="-0.77279">
        <ele>115</ele>
        <time>2022-09-19T09:55:32Z</time>
      </trkpt>
      <trkpt lat="47.12141" lon="-0.7709">
        <ele>114</ele>
        <time>2022-09-19T09:56:02Z</time>
      </trkpt>
      <trkpt lat="47.12106" lon="-0.77004">
        <ele>113</ele>
        <time>2022-09-19T09:56:18Z</time>
      </trkpt>
      <trkpt lat="47.12064" lon="-0.76923">
        <ele>112</ele>
        <time>2022-09-19T09:56:35Z</time>
      </trkpt>
      <trkpt lat="47.12035" lon="-0.76658">
        <ele>114</ele>
        <time>2022-09-19T09:57:17Z</time>
      </trkpt>
      <trkpt lat="47.1211" lon="-0.76617">
        <ele>116</ele>
        <time>2022-09-19T09:57:36Z</time>
      </trkpt>
      <trkpt lat="47.12146" lon="-0.76602">
        <ele>117</ele>
        <time>2022-09-19T09:57:45Z</time>
      </trkpt>
      <trkpt lat="47.12204" lon="-0.76612">
        <ele>124</ele>
        <time>2022-09-19T09:57:58Z</time>
      </trkpt>
      <trkpt lat="47.12334" lon="-0.7662">
        <ele>138</ele>
        <time>2022-09-19T09:58:29Z</time>
      </trkpt>
      <trkpt lat="47.12533" lon="-0.7675">
        <ele>143</ele>
        <time>2022-09-19T09:59:19Z</time>
      </trkpt>
      <trkpt lat="47.12582" lon="-0.76847">
        <ele>143</ele>
        <time>2022-09-19T09:59:39Z</time>
      </trkpt>
      <trkpt lat="47.12637" lon="-0.76872">
        <ele>143</ele>
        <time>2022-09-19T09:59:52Z</time>
      </trkpt>
      <trkpt lat="47.1275" lon="-0.76814">
        <ele>146</ele>
        <time>2022-09-19T10:00:20Z</time>
      </trkpt>
      <trkpt lat="47.12732" lon="-0.76642">
        <ele>144</ele>
        <time>2022-09-19T10:00:48Z</time>
      </trkpt>
      <trkpt lat="47.12731" lon="-0.76551">
        <ele>142</ele>
        <time>2022-09-19T10:01:02Z</time>
      </trkpt>
      <trkpt lat="47.12764" lon="-0.76395">
        <ele>143</ele>
        <time>2022-09-19T10:01:28Z</time>
      </trkpt>
      <trkpt lat="47.12815" lon="-0.76397">
        <ele>144</ele>
        <time>2022-09-19T10:01:40Z</time>
      </trkpt>
      <trkpt lat="47.12852" lon="-0.76408">
        <ele>145</ele>
        <time>2022-09-19T10:01:49Z</time>
      </trkpt>
      <trkpt lat="47.12882" lon="-0.76413">
        <ele>146</ele>
        <time>2022-09-19T10:01:56Z</time>
      </trkpt>
      <trkpt lat="47.12988" lon="-0.76368">
        <ele>148</ele>
        <time>2022-09-19T10:02:22Z</time>
      </trkpt>
      <trkpt lat="47.13056" lon="-0.76363">
        <ele>148</ele>
        <time>2022-09-19T10:02:38Z</time>
      </trkpt>
      <trkpt lat="47.13066" lon="-0.76423">
        <ele>149</ele>
        <time>2022-09-19T10:02:47Z</time>
      </trkpt>
      <trkpt lat="47.13106" lon="-0.76466">
        <ele>151</ele>
        <time>2022-09-19T10:02:59Z</time>
      </trkpt>
      <trkpt lat="47.13146" lon="-0.76474">
        <ele>151</ele>
        <time>2022-09-19T10:03:08Z</time>
      </trkpt>
      <trkpt lat="47.13178" lon="-0.76476">
        <ele>151</ele>
        <time>2022-09-19T10:03:16Z</time>
      </trkpt>
      <trkpt lat="47.13229" lon="-0.76518">
        <ele>152</ele>
        <time>2022-09-19T10:03:30Z</time>
      </trkpt>
      <trkpt lat="47.13282" lon="-0.76525">
        <ele>153</ele>
        <time>2022-09-19T10:03:42Z</time>
      </trkpt>
      <trkpt lat="47.13303" lon="-0.7653">
        <ele>154</ele>
        <time>2022-09-19T10:03:47Z</time>
      </trkpt>
      <trkpt lat="47.13324" lon="-0.7652">
        <ele>155</ele>
        <time>2022-09-19T10:03:52Z</time>
      </trkpt>
      <trkpt lat="47.13355" lon="-0.76524">
        <ele>156</ele>
        <time>2022-09-19T10:03:59Z</time>
      </trkpt>
      <trkpt lat="47.13391" lon="-0.76545">
        <ele>158</ele>
        <time>2022-09-19T10:04:08Z</time>
      </trkpt>
      <trkpt lat="47.1346" lon="-0.7654">
        <ele>162</ele>
        <time>2022-09-19T10:04:25Z</time>
      </trkpt>
      <trkpt lat="47.13495" lon="-0.76528">
        <ele>164</ele>
        <time>2022-09-19T10:04:33Z</time>
      </trkpt>
      <trkpt lat="47.13527" lon="-0.76621">
        <ele>166</ele>
        <time>2022-09-19T10:04:49Z</time>
      </trkpt>
      <trkpt lat="47.1362" lon="-0.76604">
        <ele>170</ele>
        <time>2022-09-19T10:05:11Z</time>
      </trkpt>
      <trkpt lat="47.13743" lon="-0.76577">
        <ele>173</ele>
        <time>2022-09-19T10:05:40Z</time>
      </trkpt>
      <trkpt lat="47.13766" lon="-0.76584">
        <ele>173</ele>
        <time>2022-09-19T10:05:46Z</time>
      </trkpt>
      <trkpt lat="47.13775" lon="-0.76599">
        <ele>172</ele>
        <time>2022-09-19T10:05:49Z</time>
      </trkpt>
      <trkpt lat="47.1382" lon="-0.76519">
        <ele>173</ele>
        <time>2022-09-19T10:06:06Z</time>
      </trkpt>
      <trkpt lat="47.13915" lon="-0.76487">
        <ele>175</ele>
        <time>2022-09-19T10:06:28Z</time>
      </trkpt>
      <trkpt lat="47.14018" lon="-0.76462">
        <ele>176</ele>
        <time>2022-09-19T10:06:53Z</time>
      </trkpt>
      <trkpt lat="47.14104" lon="-0.76436">
        <ele>177</ele>
        <time>2022-09-19T10:07:13Z</time>
      </trkpt>
      <trkpt lat="47.14198" lon="-0.76386">
        <ele>177</ele>
        <time>2022-09-19T10:07:37Z</time>
      </trkpt>
      <trkpt lat="47.14303" lon="-0.76325">
        <ele>177</ele>
        <time>2022-09-19T10:08:03Z</time>
      </trkpt>
      <trkpt lat="47.14354" lon="-0.76298">
        <ele>178</ele>
        <time>2022-09-19T10:08:16Z</time>
      </trkpt>
      <trkpt lat="47.14394" lon="-0.76016">
        <ele>182</ele>
        <time>2022-09-19T10:09:01Z</time>
      </trkpt>
      <trkpt lat="47.14412" lon="-0.75777">
        <ele>185</ele>
        <time>2022-09-19T10:09:40Z</time>
      </trkpt>
      <trkpt lat="47.14414" lon="-0.75706">
        <ele>186</ele>
        <time>2022-09-19T10:09:51Z</time>
      </trkpt>
      <trkpt lat="47.14429" lon="-0.75713">
        <ele>186</ele>
        <time>2022-09-19T10:09:54Z</time>
      </trkpt>
      <trkpt lat="47.1443" lon="-0.75669">
        <ele>186</ele>
        <time>2022-09-19T10:10:01Z</time>
      </trkpt>
      <trkpt lat="47.14408" lon="-0.7556">
        <ele>189</ele>
        <time>2022-09-19T10:10:20Z</time>
      </trkpt>
      <trkpt lat="47.14396" lon="-0.75549">
        <ele>189</ele>
        <time>2022-09-19T10:10:23Z</time>
      </trkpt>
      <trkpt lat="47.14392" lon="-0.75505">
        <ele>188</ele>
        <time>2022-09-19T10:10:30Z</time>
      </trkpt>
      <trkpt lat="47.14404" lon="-0.75412">
        <ele>190</ele>
        <time>2022-09-19T10:10:45Z</time>
      </trkpt>
      <trkpt lat="47.14436" lon="-0.7542">
        <ele>190</ele>
        <time>2022-09-19T10:10:53Z</time>
      </trkpt>
      <trkpt lat="47.1445" lon="-0.75344">
        <ele>191</ele>
        <time>2022-09-19T10:11:05Z</time>
      </trkpt>
      <trkpt lat="47.1446" lon="-0.75313">
        <ele>191</ele>
        <time>2022-09-19T10:11:10Z</time>
      </trkpt>
      <trkpt lat="47.14502" lon="-0.75332">
        <ele>191</ele>
        <time>2022-09-19T10:11:21Z</time>
      </trkpt>
      <trkpt lat="47.14555" lon="-0.75348">
        <ele>188</ele>
        <time>2022-09-19T10:11:33Z</time>
      </trkpt>
      <trkpt lat="47.14608" lon="-0.75348">
        <ele>187</ele>
        <time>2022-09-19T10:11:46Z</time>
      </trkpt>
      <trkpt lat="47.14713" lon="-0.75359">
        <ele>182</ele>
        <time>2022-09-19T10:12:10Z</time>
      </trkpt>
      <trkpt lat="47.14752" lon="-0.75369">
        <ele>179</ele>
        <time>2022-09-19T10:12:20Z</time>
      </trkpt>
      <trkpt lat="47.14808" lon="-0.75372">
        <ele>177</ele>
        <time>2022-09-19T10:12:33Z</time>
      </trkpt>
      <trkpt lat="47.14956" lon="-0.75411">
        <ele>169</ele>
        <time>2022-09-19T10:13:08Z</time>
      </trkpt>
      <trkpt lat="47.15018" lon="-0.75423">
        <ele>165</ele>
        <time>2022-09-19T10:13:22Z</time>
      </trkpt>
      <trkpt lat="47.15087" lon="-0.75484">
        <ele>158</ele>
        <time>2022-09-19T10:13:41Z</time>
      </trkpt>
      <trkpt lat="47.15161" lon="-0.7557">
        <ele>150</ele>
        <time>2022-09-19T10:14:03Z</time>
      </trkpt>
      <trkpt lat="47.15185" lon="-0.75607">
        <ele>146</ele>
        <time>2022-09-19T10:14:11Z</time>
      </trkpt>
      <trkpt lat="47.1523" lon="-0.75572">
        <ele>143</ele>
        <time>2022-09-19T10:14:23Z</time>
      </trkpt>
      <trkpt lat="47.15247" lon="-0.75489">
        <ele>143</ele>
        <time>2022-09-19T10:14:37Z</time>
      </trkpt>
      <trkpt lat="47.15296" lon="-0.75475">
        <ele>139</ele>
        <time>2022-09-19T10:14:49Z</time>
      </trkpt>
      <trkpt lat="47.15328" lon="-0.75431">
        <ele>137</ele>
        <time>2022-09-19T10:14:59Z</time>
      </trkpt>
      <trkpt lat="47.15363" lon="-0.75377">
        <ele>137</ele>
        <time>2022-09-19T10:15:11Z</time>
      </trkpt>
      <trkpt lat="47.15401" lon="-0.7534">
        <ele>136</ele>
        <time>2022-09-19T10:15:21Z</time>
      </trkpt>
      <trkpt lat="47.15464" lon="-0.7512">
        <ele>136</ele>
        <time>2022-09-19T10:15:59Z</time>
      </trkpt>
      <trkpt lat="47.15496" lon="-0.75119">
        <ele>133</ele>
        <time>2022-09-19T10:16:07Z</time>
      </trkpt>
      <trkpt lat="47.15495" lon="-0.75084">
        <ele>133</ele>
        <time>2022-09-19T10:16:12Z</time>
      </trkpt>
      <trkpt lat="47.15499" lon="-0.75037">
        <ele>132</ele>
        <time>2022-09-19T10:16:20Z</time>
      </trkpt>
      <trkpt lat="47.15518" lon="-0.74957">
        <ele>133</ele>
        <time>2022-09-19T10:16:33Z</time>
      </trkpt>
      <trkpt lat="47.15533" lon="-0.74908">
        <ele>133</ele>
        <time>2022-09-19T10:16:42Z</time>
      </trkpt>
      <trkpt lat="47.15498" lon="-0.74831">
        <ele>135</ele>
        <time>2022-09-19T10:16:57Z</time>
      </trkpt>
      <trkpt lat="47.15461" lon="-0.74726">
        <ele>145</ele>
        <time>2022-09-19T10:17:15Z</time>
      </trkpt>
      <trkpt lat="47.15434" lon="-0.7467">
        <ele>150</ele>
        <time>2022-09-19T10:17:26Z</time>
      </trkpt>
      <trkpt lat="47.15404" lon="-0.74624">
        <ele>154</ele>
        <time>2022-09-19T10:17:36Z</time>
      </trkpt>
      <trkpt lat="47.15441" lon="-0.74573">
        <ele>155</ele>
        <time>2022-09-19T10:17:48Z</time>
      </trkpt>
      <trkpt lat="47.15454" lon="-0.7449">
        <ele>159</ele>
        <time>2022-09-19T10:18:02Z</time>
      </trkpt>
      <trkpt lat="47.15484" lon="-0.74413">
        <ele>164</ele>
        <time>2022-09-19T10:18:16Z</time>
      </trkpt>
      <trkpt lat="47.15497" lon="-0.74361">
        <ele>165</ele>
        <time>2022-09-19T10:18:25Z</time>
      </trkpt>
      <trkpt lat="47.15481" lon="-0.74303">
        <ele>168</ele>
        <time>2022-09-19T10:18:35Z</time>
      </trkpt>
      <trkpt lat="47.15514" lon="-0.74239">
        <ele>167</ele>
        <time>2022-09-19T10:18:47Z</time>
      </trkpt>
      <trkpt lat="47.15532" lon="-0.74177">
        <ele>168</ele>
        <time>2022-09-19T10:18:58Z</time>
      </trkpt>
      <trkpt lat="47.15553" lon="-0.74138">
        <ele>167</ele>
        <time>2022-09-19T10:19:06Z</time>
      </trkpt>
      <trkpt lat="47.15557" lon="-0.74108">
        <ele>168</ele>
        <time>2022-09-19T10:19:11Z</time>
      </trkpt>
      <trkpt lat="47.1558" lon="-0.74111">
        <ele>164</ele>
        <time>2022-09-19T10:19:16Z</time>
      </trkpt>
      <trkpt lat="47.15593" lon="-0.74118">
        <ele>162</ele>
        <time>2022-09-19T10:19:19Z</time>
      </trkpt>
      <trkpt lat="47.15634" lon="-0.73992">
        <ele>162</ele>
        <time>2022-09-19T10:19:42Z</time>
      </trkpt>
      <trkpt lat="47.15653" lon="-0.73992">
        <ele>159</ele>
        <time>2022-09-19T10:19:46Z</time>
      </trkpt>
      <trkpt lat="47.15555" lon="-0.7352">
        <ele>192</ele>
        <time>2022-09-19T10:21:04Z</time>
      </trkpt>
      <trkpt lat="47.15573" lon="-0.73494">
        <ele>191</ele>
        <time>2022-09-19T10:21:10Z</time>
      </trkpt>
      <trkpt lat="47.15627" lon="-0.73479">
        <ele>185</ele>
        <time>2022-09-19T10:21:23Z</time>
      </trkpt>
      <trkpt lat="47.15677" lon="-0.734">
        <ele>183</ele>
        <time>2022-09-19T10:21:40Z</time>
      </trkpt>
      <trkpt lat="47.15718" lon="-0.73322">
        <ele>177</ele>
        <time>2022-09-19T10:21:56Z</time>
      </trkpt>
      <trkpt lat="47.15721" lon="-0.73236">
        <ele>177</ele>
        <time>2022-09-19T10:22:10Z</time>
      </trkpt>
      <trkpt lat="47.15788" lon="-0.7314">
        <ele>169</ele>
        <time>2022-09-19T10:22:31Z</time>
      </trkpt>
      <trkpt lat="47.15818" lon="-0.73029">
        <ele>166</ele>
        <time>2022-09-19T10:22:50Z</time>
      </trkpt>
      <trkpt lat="47.15855" lon="-0.72979">
        <ele>160</ele>
        <time>2022-09-19T10:23:02Z</time>
      </trkpt>
      <trkpt lat="47.15902" lon="-0.72975">
        <ele>154</ele>
        <time>2022-09-19T10:23:13Z</time>
      </trkpt>
      <trkpt lat="47.15925" lon="-0.73025">
        <ele>151</ele>
        <time>2022-09-19T10:23:23Z</time>
      </trkpt>
      <trkpt lat="47.15945" lon="-0.73097">
        <ele>148</ele>
        <time>2022-09-19T10:23:35Z</time>
      </trkpt>
      <trkpt lat="47.16044" lon="-0.73132">
        <ele>141</ele>
        <time>2022-09-19T10:23:59Z</time>
      </trkpt>
      <trkpt lat="47.16169" lon="-0.73143">
        <ele>132</ele>
        <time>2022-09-19T10:24:28Z</time>
      </trkpt>
      <trkpt lat="47.16424" lon="-0.73127">
        <ele>129</ele>
        <time>2022-09-19T10:25:28Z</time>
      </trkpt>
      <trkpt lat="47.16412" lon="-0.73192">
        <ele>129</ele>
        <time>2022-09-19T10:25:38Z</time>
      </trkpt>
      <trkpt lat="47.1642" lon="-0.73337">
        <ele>127</ele>
        <time>2022-09-19T10:26:01Z</time>
      </trkpt>
      <trkpt lat="47.16505" lon="-0.73319">
        <ele>126</ele>
        <time>2022-09-19T10:26:22Z</time>
      </trkpt>
      <trkpt lat="47.16597" lon="-0.73314">
        <ele>123</ele>
        <time>2022-09-19T10:26:43Z</time>
      </trkpt>
      <trkpt lat="47.16713" lon="-0.73343">
        <ele>120</ele>
        <time>2022-09-19T10:27:10Z</time>
      </trkpt>
      <trkpt lat="47.16763" lon="-0.73175">
        <ele>120</ele>
        <time>2022-09-19T10:27:40Z</time>
      </trkpt>
      <trkpt lat="47.1691" lon="-0.73137">
        <ele>122</ele>
        <time>2022-09-19T10:28:14Z</time>
      </trkpt>
      <trkpt lat="47.17026" lon="-0.73129">
        <ele>122</ele>
        <time>2022-09-19T10:28:42Z</time>
      </trkpt>
      <trkpt lat="47.17115" lon="-0.73114">
        <ele>120</ele>
        <time>2022-09-19T10:29:02Z</time>
      </trkpt>
      <trkpt lat="47.1722" lon="-0.7306">
        <ele>119</ele>
        <time>2022-09-19T10:29:28Z</time>
      </trkpt>
      <trkpt lat="47.17357" lon="-0.73044">
        <ele>118</ele>
        <time>2022-09-19T10:30:01Z</time>
      </trkpt>
      <trkpt lat="47.17464" lon="-0.73064">
        <ele>116</ele>
        <time>2022-09-19T10:30:26Z</time>
      </trkpt>
      <trkpt lat="47.17576" lon="-0.73092">
        <ele>116</ele>
        <time>2022-09-19T10:30:52Z</time>
      </trkpt>
      <trkpt lat="47.17524" lon="-0.72972">
        <ele>115</ele>
        <time>2022-09-19T10:31:15Z</time>
      </trkpt>
      <trkpt lat="47.17463" lon="-0.72784">
        <ele>115</ele>
        <time>2022-09-19T10:31:48Z</time>
      </trkpt>
      <trkpt lat="47.1743" lon="-0.7265">
        <ele>114</ele>
        <time>2022-09-19T10:32:11Z</time>
      </trkpt>
      <trkpt lat="47.17403" lon="-0.7252">
        <ele>112</ele>
        <time>2022-09-19T10:32:32Z</time>
      </trkpt>
      <trkpt lat="47.17399" lon="-0.72429">
        <ele>115</ele>
        <time>2022-09-19T10:32:47Z</time>
      </trkpt>
      <trkpt lat="47.17388" lon="-0.72327">
        <ele>123</ele>
        <time>2022-09-19T10:33:03Z</time>
      </trkpt>
      <trkpt lat="47.17335" lon="-0.72128">
        <ele>126</ele>
        <time>2022-09-19T10:33:37Z</time>
      </trkpt>
      <trkpt lat="47.17317" lon="-0.72092">
        <ele>125</ele>
        <time>2022-09-19T10:33:44Z</time>
      </trkpt>
      <trkpt lat="47.17334" lon="-0.72018">
        <ele>122</ele>
        <time>2022-09-19T10:33:56Z</time>
      </trkpt>
      <trkpt lat="47.17349" lon="-0.71933">
        <ele>119</ele>
        <time>2022-09-19T10:34:10Z</time>
      </trkpt>
      <trkpt lat="47.17371" lon="-0.71832">
        <ele>116</ele>
        <time>2022-09-19T10:34:27Z</time>
      </trkpt>
      <trkpt lat="47.17378" lon="-0.71652">
        <ele>112</ele>
        <time>2022-09-19T10:34:56Z</time>
      </trkpt>
      <trkpt lat="47.17386" lon="-0.71626">
        <ele>112</ele>
        <time>2022-09-19T10:35:00Z</time>
      </trkpt>
      <trkpt lat="47.17418" lon="-0.71551">
        <ele>113</ele>
        <time>2022-09-19T10:35:14Z</time>
      </trkpt>
      <trkpt lat="47.17417" lon="-0.71279">
        <ele>122</ele>
        <time>2022-09-19T10:35:58Z</time>
      </trkpt>
      <trkpt lat="47.17411" lon="-0.71213">
        <ele>124</ele>
        <time>2022-09-19T10:36:08Z</time>
      </trkpt>
      <trkpt lat="47.17377" lon="-0.71091">
        <ele>124</ele>
        <time>2022-09-19T10:36:29Z</time>
      </trkpt>
      <trkpt lat="47.17381" lon="-0.7097">
        <ele>123</ele>
        <time>2022-09-19T10:36:48Z</time>
      </trkpt>
      <trkpt lat="47.17382" lon="-0.70836">
        <ele>123</ele>
        <time>2022-09-19T10:37:10Z</time>
      </trkpt>
      <trkpt lat="47.1733" lon="-0.70813">
        <ele>124</ele>
        <time>2022-09-19T10:37:22Z</time>
      </trkpt>
      <trkpt lat="47.17351" lon="-0.70758">
        <ele>123</ele>
        <time>2022-09-19T10:37:32Z</time>
      </trkpt>
      <trkpt lat="47.17321" lon="-0.70678">
        <ele>124</ele>
        <time>2022-09-19T10:37:47Z</time>
      </trkpt>
      <trkpt lat="47.17314" lon="-0.7065">
        <ele>125</ele>
        <time>2022-09-19T10:37:52Z</time>
      </trkpt>
      <trkpt lat="47.17319" lon="-0.70571">
        <ele>126</ele>
        <time>2022-09-19T10:38:04Z</time>
      </trkpt>
      <trkpt lat="47.17295" lon="-0.70436">
        <ele>128</ele>
        <time>2022-09-19T10:38:26Z</time>
      </trkpt>
      <trkpt lat="47.17226" lon="-0.70353">
        <ele>128</ele>
        <time>2022-09-19T10:38:47Z</time>
      </trkpt>
      <trkpt lat="47.17225" lon="-0.70317">
        <ele>129</ele>
        <time>2022-09-19T10:38:53Z</time>
      </trkpt>
      <trkpt lat="47.17206" lon="-0.7028">
        <ele>129</ele>
        <time>2022-09-19T10:39:00Z</time>
      </trkpt>
      <trkpt lat="47.17219" lon="-0.70218">
        <ele>129</ele>
        <time>2022-09-19T10:39:10Z</time>
      </trkpt>
      <trkpt lat="47.17245" lon="-0.70131">
        <ele>131</ele>
        <time>2022-09-19T10:39:26Z</time>
      </trkpt>
      <trkpt lat="47.17236" lon="-0.70056">
        <ele>131</ele>
        <time>2022-09-19T10:39:38Z</time>
      </trkpt>
      <trkpt lat="47.17205" lon="-0.70016">
        <ele>130</ele>
        <time>2022-09-19T10:39:47Z</time>
      </trkpt>
      <trkpt lat="47.17141" lon="-0.69772">
        <ele>133</ele>
        <time>2022-09-19T10:40:29Z</time>
      </trkpt>
      <trkpt lat="47.17102" lon="-0.69734">
        <ele>133</ele>
        <time>2022-09-19T10:40:40Z</time>
      </trkpt>
      <trkpt lat="47.17073" lon="-0.69625">
        <ele>132</ele>
        <time>2022-09-19T10:40:58Z</time>
      </trkpt>
      <trkpt lat="47.1703" lon="-0.69327">
        <ele>134</ele>
        <time>2022-09-19T10:41:47Z</time>
      </trkpt>
      <trkpt lat="47.17031" lon="-0.69214">
        <ele>132</ele>
        <time>2022-09-19T10:42:05Z</time>
      </trkpt>
      <trkpt lat="47.17044" lon="-0.69161">
        <ele>132</ele>
        <time>2022-09-19T10:42:14Z</time>
      </trkpt>
      <trkpt lat="47.17099" lon="-0.69146">
        <ele>133</ele>
        <time>2022-09-19T10:42:27Z</time>
      </trkpt>
      <trkpt lat="47.17118" lon="-0.68801">
        <ele>127</ele>
        <time>2022-09-19T10:43:22Z</time>
      </trkpt>
      <trkpt lat="47.1717" lon="-0.68764">
        <ele>127</ele>
        <time>2022-09-19T10:43:35Z</time>
      </trkpt>
      <trkpt lat="47.17183" lon="-0.68688">
        <ele>125</ele>
        <time>2022-09-19T10:43:48Z</time>
      </trkpt>
      <trkpt lat="47.17134" lon="-0.68636">
        <ele>126</ele>
        <time>2022-09-19T10:44:02Z</time>
      </trkpt>
      <trkpt lat="47.1702" lon="-0.68506">
        <ele>128</ele>
        <time>2022-09-19T10:44:35Z</time>
      </trkpt>
      <trkpt lat="47.16981" lon="-0.68538">
        <ele>129</ele>
        <time>2022-09-19T10:44:46Z</time>
      </trkpt>
      <trkpt lat="47.16766" lon="-0.68663">
        <ele>133</ele>
        <time>2022-09-19T10:45:40Z</time>
      </trkpt>
      <trkpt lat="47.16746" lon="-0.68723">
        <ele>133</ele>
        <time>2022-09-19T10:45:50Z</time>
      </trkpt>
      <trkpt lat="47.16715" lon="-0.68757">
        <ele>134</ele>
        <time>2022-09-19T10:45:59Z</time>
      </trkpt>
      <trkpt lat="47.16658" lon="-0.68762">
        <ele>136</ele>
        <time>2022-09-19T10:46:13Z</time>
      </trkpt>
      <trkpt lat="47.16653" lon="-0.68711">
        <ele>138</ele>
        <time>2022-09-19T10:46:21Z</time>
      </trkpt>
      <trkpt lat="47.16618" lon="-0.68635">
        <ele>140</ele>
        <time>2022-09-19T10:46:35Z</time>
      </trkpt>
      <trkpt lat="47.1655" lon="-0.68656">
        <ele>143</ele>
        <time>2022-09-19T10:46:52Z</time>
      </trkpt>
      <trkpt lat="47.16504" lon="-0.68697">
        <ele>145</ele>
        <time>2022-09-19T10:47:04Z</time>
      </trkpt>
      <trkpt lat="47.16492" lon="-0.68728">
        <ele>146</ele>
        <time>2022-09-19T10:47:10Z</time>
      </trkpt>
      <trkpt lat="47.16435" lon="-0.68777">
        <ele>149</ele>
        <time>2022-09-19T10:47:25Z</time>
      </trkpt>
      <trkpt lat="47.16389" lon="-0.68889">
        <ele>152</ele>
        <time>2022-09-19T10:47:46Z</time>
      </trkpt>
      <trkpt lat="47.16352" lon="-0.68989">
        <ele>154</ele>
        <time>2022-09-19T10:48:04Z</time>
      </trkpt>
      <trkpt lat="47.16327" lon="-0.69154">
        <ele>157</ele>
        <time>2022-09-19T10:48:31Z</time>
      </trkpt>
      <trkpt lat="47.16051" lon="-0.69319">
        <ele>194</ele>
        <time>2022-09-19T10:49:41Z</time>
      </trkpt>
      <trkpt lat="47.15966" lon="-0.69344">
        <ele>203</ele>
        <time>2022-09-19T10:50:01Z</time>
      </trkpt>
      <trkpt lat="47.15893" lon="-0.69377">
        <ele>208</ele>
        <time>2022-09-19T10:50:19Z</time>
      </trkpt>
      <trkpt lat="47.15878" lon="-0.69369">
        <ele>208</ele>
        <time>2022-09-19T10:50:22Z</time>
      </trkpt>
      <trkpt lat="47.1588" lon="-0.69291">
        <ele>208</ele>
        <time>2022-09-19T10:50:35Z</time>
      </trkpt>
      <trkpt lat="47.15874" lon="-0.69269">
        <ele>209</ele>
        <time>2022-09-19T10:50:39Z</time>
      </trkpt>
      <trkpt lat="47.15872" lon="-0.69229">
        <ele>209</ele>
        <time>2022-09-19T10:50:45Z</time>
      </trkpt>
      <trkpt lat="47.15696" lon="-0.69329">
        <ele>205</ele>
        <time>2022-09-19T10:51:29Z</time>
      </trkpt>
      <trkpt lat="47.15602" lon="-0.69451">
        <ele>200</ele>
        <time>2022-09-19T10:51:58Z</time>
      </trkpt>
      <trkpt lat="47.15603" lon="-0.69485">
        <ele>200</ele>
        <time>2022-09-19T10:52:04Z</time>
      </trkpt>
      <trkpt lat="47.15527" lon="-0.69561">
        <ele>201</ele>
        <time>2022-09-19T10:52:25Z</time>
      </trkpt>
      <trkpt lat="47.15332" lon="-0.69602">
        <ele>209</ele>
        <time>2022-09-19T10:53:11Z</time>
      </trkpt>
      <trkpt lat="47.15321" lon="-0.6953">
        <ele>210</ele>
        <time>2022-09-19T10:53:23Z</time>
      </trkpt>
      <trkpt lat="47.15309" lon="-0.69344">
        <ele>211</ele>
        <time>2022-09-19T10:53:53Z</time>
      </trkpt>
      <trkpt lat="47.15228" lon="-0.69362">
        <ele>213</ele>
        <time>2022-09-19T10:54:12Z</time>
      </trkpt>
      <trkpt lat="47.15167" lon="-0.6939">
        <ele>212</ele>
        <time>2022-09-19T10:54:27Z</time>
      </trkpt>
      <trkpt lat="47.15043" lon="-0.69416">
        <ele>209</ele>
        <time>2022-09-19T10:54:56Z</time>
      </trkpt>
      <trkpt lat="47.15008" lon="-0.69415">
        <ele>208</ele>
        <time>2022-09-19T10:55:04Z</time>
      </trkpt>
      <trkpt lat="47.14951" lon="-0.69455">
        <ele>206</ele>
        <time>2022-09-19T10:55:19Z</time>
      </trkpt>
      <trkpt lat="47.14885" lon="-0.69474">
        <ele>202</ele>
        <time>2022-09-19T10:55:34Z</time>
      </trkpt>
      <trkpt lat="47.14797" lon="-0.69513">
        <ele>197</ele>
        <time>2022-09-19T10:55:56Z</time>
      </trkpt>
      <trkpt lat="47.14764" lon="-0.69553">
        <ele>195</ele>
        <time>2022-09-19T10:56:06Z</time>
      </trkpt>
      <trkpt lat="47.1476" lon="-0.69669">
        <ele>194</ele>
        <time>2022-09-19T10:56:24Z</time>
      </trkpt>
      <trkpt lat="47.14761" lon="-0.69753">
        <ele>194</ele>
        <time>2022-09-19T10:56:38Z</time>
      </trkpt>
      <trkpt lat="47.14802" lon="-0.69879">
        <ele>193</ele>
        <time>2022-09-19T10:57:00Z</time>
      </trkpt>
      <trkpt lat="47.14782" lon="-0.69974">
        <ele>190</ele>
        <time>2022-09-19T10:57:16Z</time>
      </trkpt>
      <trkpt lat="47.14729" lon="-0.69955">
        <ele>189</ele>
        <time>2022-09-19T10:57:28Z</time>
      </trkpt>
      <trkpt lat="47.14734" lon="-0.70031">
        <ele>187</ele>
        <time>2022-09-19T10:57:41Z</time>
      </trkpt>
      <trkpt lat="47.14726" lon="-0.70057">
        <ele>186</ele>
        <time>2022-09-19T10:57:45Z</time>
      </trkpt>
      <trkpt lat="47.14741" lon="-0.70115">
        <ele>184</ele>
        <time>2022-09-19T10:57:55Z</time>
      </trkpt>
      <trkpt lat="47.14577" lon="-0.7025">
        <ele>180</ele>
        <time>2022-09-19T10:58:39Z</time>
      </trkpt>
      <trkpt lat="47.14631" lon="-0.70377">
        <ele>176</ele>
        <time>2022-09-19T10:59:03Z</time>
      </trkpt>
      <trkpt lat="47.14752" lon="-0.70479">
        <ele>173</ele>
        <time>2022-09-19T10:59:35Z</time>
      </trkpt>
      <trkpt lat="47.14824" lon="-0.70532">
        <ele>173</ele>
        <time>2022-09-19T10:59:54Z</time>
      </trkpt>
      <trkpt lat="47.14861" lon="-0.70539">
        <ele>176</ele>
        <time>2022-09-19T11:00:03Z</time>
      </trkpt>
      <trkpt lat="47.14915" lon="-0.70603">
        <ele>180</ele>
        <time>2022-09-19T11:00:19Z</time>
      </trkpt>
      <trkpt lat="47.14954" lon="-0.70627">
        <ele>183</ele>
        <time>2022-09-19T11:00:29Z</time>
      </trkpt>
      <trkpt lat="47.15107" lon="-0.71079">
        <ele>189</ele>
        <time>2022-09-19T11:01:49Z</time>
      </trkpt>
      <trkpt lat="47.1514" lon="-0.71126">
        <ele>190</ele>
        <time>2022-09-19T11:02:00Z</time>
      </trkpt>
      <trkpt lat="47.15174" lon="-0.71284">
        <ele>188</ele>
        <time>2022-09-19T11:02:26Z</time>
      </trkpt>
      <trkpt lat="47.15122" lon="-0.71327">
        <ele>182</ele>
        <time>2022-09-19T11:02:40Z</time>
      </trkpt>
      <trkpt lat="47.15044" lon="-0.71343">
        <ele>175</ele>
        <time>2022-09-19T11:02:58Z</time>
      </trkpt>
      <trkpt lat="47.14853" lon="-0.71405">
        <ele>162</ele>
        <time>2022-09-19T11:03:44Z</time>
      </trkpt>
      <trkpt lat="47.14713" lon="-0.71416">
        <ele>157</ele>
        <time>2022-09-19T11:04:17Z</time>
      </trkpt>
      <trkpt lat="47.14697" lon="-0.71431">
        <ele>156</ele>
        <time>2022-09-19T11:04:21Z</time>
      </trkpt>
      <trkpt lat="47.14603" lon="-0.71468">
        <ele>156</ele>
        <time>2022-09-19T11:04:44Z</time>
      </trkpt>
      <trkpt lat="47.14572" lon="-0.71522">
        <ele>154</ele>
        <time>2022-09-19T11:04:55Z</time>
      </trkpt>
      <trkpt lat="47.14505" lon="-0.71731">
        <ele>153</ele>
        <time>2022-09-19T11:05:32Z</time>
      </trkpt>
      <trkpt lat="47.14526" lon="-0.7178">
        <ele>153</ele>
        <time>2022-09-19T11:05:41Z</time>
      </trkpt>
      <trkpt lat="47.14491" lon="-0.7178">
        <ele>154</ele>
        <time>2022-09-19T11:05:49Z</time>
      </trkpt>
      <trkpt lat="47.14434" lon="-0.71766">
        <ele>154</ele>
        <time>2022-09-19T11:06:03Z</time>
      </trkpt>
      <trkpt lat="47.14315" lon="-0.71811">
        <ele>153</ele>
        <time>2022-09-19T11:06:31Z</time>
      </trkpt>
      <trkpt lat="47.14288" lon="-0.71841">
        <ele>153</ele>
        <time>2022-09-19T11:06:39Z</time>
      </trkpt>
      <trkpt lat="47.14267" lon="-0.71852">
        <ele>153</ele>
        <time>2022-09-19T11:06:45Z</time>
      </trkpt>
      <trkpt lat="47.14221" lon="-0.71846">
        <ele>154</ele>
        <time>2022-09-19T11:06:55Z</time>
      </trkpt>
      <trkpt lat="47.14189" lon="-0.71847">
        <ele>154</ele>
        <time>2022-09-19T11:07:03Z</time>
      </trkpt>
      <trkpt lat="47.14126" lon="-0.71897">
        <ele>154</ele>
        <time>2022-09-19T11:07:20Z</time>
      </trkpt>
      <trkpt lat="47.14053" lon="-0.71846">
        <ele>157</ele>
        <time>2022-09-19T11:07:38Z</time>
      </trkpt>
      <trkpt lat="47.13949" lon="-0.71816">
        <ele>158</ele>
        <time>2022-09-19T11:08:03Z</time>
      </trkpt>
      <trkpt lat="47.13934" lon="-0.71827">
        <ele>158</ele>
        <time>2022-09-19T11:08:07Z</time>
      </trkpt>
      <trkpt lat="47.13746" lon="-0.71859">
        <ele>156</ele>
        <time>2022-09-19T11:08:51Z</time>
      </trkpt>
      <trkpt lat="47.13601" lon="-0.7189">
        <ele>148</ele>
        <time>2022-09-19T11:09:25Z</time>
      </trkpt>
      <trkpt lat="47.13525" lon="-0.71937">
        <ele>145</ele>
        <time>2022-09-19T11:09:45Z</time>
      </trkpt>
      <trkpt lat="47.1343" lon="-0.71967">
        <ele>145</ele>
        <time>2022-09-19T11:10:07Z</time>
      </trkpt>
      <trkpt lat="47.13377" lon="-0.71991">
        <ele>146</ele>
        <time>2022-09-19T11:10:20Z</time>
      </trkpt>
      <trkpt lat="47.13352" lon="-0.71974">
        <ele>146</ele>
        <time>2022-09-19T11:10:27Z</time>
      </trkpt>
      <trkpt lat="47.1333" lon="-0.71917">
        <ele>146</ele>
        <time>2022-09-19T11:10:37Z</time>
      </trkpt>
      <trkpt lat="47.13265" lon="-0.71859">
        <ele>148</ele>
        <time>2022-09-19T11:10:55Z</time>
      </trkpt>
      <trkpt lat="47.13157" lon="-0.71831">
        <ele>146</ele>
        <time>2022-09-19T11:11:21Z</time>
      </trkpt>
      <trkpt lat="47.1311" lon="-0.71784">
        <ele>146</ele>
        <time>2022-09-19T11:11:34Z</time>
      </trkpt>
      <trkpt lat="47.13066" lon="-0.71708">
        <ele>147</ele>
        <time>2022-09-19T11:11:50Z</time>
      </trkpt>
      <trkpt lat="47.13012" lon="-0.71645">
        <ele>149</ele>
        <time>2022-09-19T11:12:06Z</time>
      </trkpt>
      <trkpt lat="47.12988" lon="-0.71606">
        <ele>150</ele>
        <time>2022-09-19T11:12:14Z</time>
      </trkpt>
      <trkpt lat="47.12907" lon="-0.71544">
        <ele>152</ele>
        <time>2022-09-19T11:12:35Z</time>
      </trkpt>
      <trkpt lat="47.12823" lon="-0.71532">
        <ele>150</ele>
        <time>2022-09-19T11:12:55Z</time>
      </trkpt>
      <trkpt lat="47.12767" lon="-0.71537">
        <ele>148</ele>
        <time>2022-09-19T11:13:08Z</time>
      </trkpt>
      <trkpt lat="47.12721" lon="-0.71544">
        <ele>147</ele>
        <time>2022-09-19T11:13:19Z</time>
      </trkpt>
      <trkpt lat="47.12661" lon="-0.71623">
        <ele>145</ele>
        <time>2022-09-19T11:13:38Z</time>
      </trkpt>
      <trkpt lat="47.12578" lon="-0.71715">
        <ele>143</ele>
        <time>2022-09-19T11:14:02Z</time>
      </trkpt>
      <trkpt lat="47.12492" lon="-0.71796">
        <ele>141</ele>
        <time>2022-09-19T11:14:26Z</time>
      </trkpt>
      <trkpt lat="47.12429" lon="-0.71847">
        <ele>141</ele>
        <time>2022-09-19T11:14:43Z</time>
      </trkpt>
      <trkpt lat="47.12374" lon="-0.71908">
        <ele>138</ele>
        <time>2022-09-19T11:14:59Z</time>
      </trkpt>
      <trkpt lat="47.12309" lon="-0.71935">
        <ele>135</ele>
        <time>2022-09-19T11:15:15Z</time>
      </trkpt>
      <trkpt lat="47.12274" lon="-0.71957">
        <ele>134</ele>
        <time>2022-09-19T11:15:24Z</time>
      </trkpt>
      <trkpt lat="47.12273" lon="-0.71975">
        <ele>134</ele>
        <time>2022-09-19T11:15:26Z</time>
      </trkpt>
      <trkpt lat="47.12217" lon="-0.71974">
        <ele>133</ele>
        <time>2022-09-19T11:15:40Z</time>
      </trkpt>
      <trkpt lat="47.1215" lon="-0.71944">
        <ele>133</ele>
        <time>2022-09-19T11:15:56Z</time>
      </trkpt>
      <trkpt lat="47.12114" lon="-0.71898">
        <ele>133</ele>
        <time>2022-09-19T11:16:07Z</time>
      </trkpt>
      <trkpt lat="47.12058" lon="-0.7185">
        <ele>134</ele>
        <time>2022-09-19T11:16:22Z</time>
      </trkpt>
      <trkpt lat="47.11936" lon="-0.71815">
        <ele>135</ele>
        <time>2022-09-19T11:16:51Z</time>
      </trkpt>
      <trkpt lat="47.11903" lon="-0.71816">
        <ele>136</ele>
        <time>2022-09-19T11:16:59Z</time>
      </trkpt>
      <trkpt lat="47.11853" lon="-0.71776">
        <ele>137</ele>
        <time>2022-09-19T11:17:12Z</time>
      </trkpt>
      <trkpt lat="47.11791" lon="-0.71944">
        <ele>137</ele>
        <time>2022-09-19T11:17:43Z</time>
      </trkpt>
      <trkpt lat="47.11716" lon="-0.71973">
        <ele>138</ele>
        <time>2022-09-19T11:18:01Z</time>
      </trkpt>
      <trkpt lat="47.11635" lon="-0.72012">
        <ele>138</ele>
        <time>2022-09-19T11:18:21Z</time>
      </trkpt>
      <trkpt lat="47.11587" lon="-0.72062">
        <ele>139</ele>
        <time>2022-09-19T11:18:34Z</time>
      </trkpt>
      <trkpt lat="47.11425" lon="-0.72159">
        <ele>141</ele>
        <time>2022-09-19T11:19:15Z</time>
      </trkpt>
      <trkpt lat="47.11399" lon="-0.72195">
        <ele>141</ele>
        <time>2022-09-19T11:19:24Z</time>
      </trkpt>
      <trkpt lat="47.11345" lon="-0.72306">
        <ele>141</ele>
        <time>2022-09-19T11:19:45Z</time>
      </trkpt>
      <trkpt lat="47.11306" lon="-0.7247">
        <ele>143</ele>
        <time>2022-09-19T11:20:13Z</time>
      </trkpt>
      <trkpt lat="47.11292" lon="-0.72617">
        <ele>145</ele>
        <time>2022-09-19T11:20:36Z</time>
      </trkpt>
      <trkpt lat="47.11258" lon="-0.72777">
        <ele>145</ele>
        <time>2022-09-19T11:21:03Z</time>
      </trkpt>
      <trkpt lat="47.11208" lon="-0.72882">
        <ele>147</ele>
        <time>2022-09-19T11:21:23Z</time>
      </trkpt>
      <trkpt lat="47.11115" lon="-0.73009">
        <ele>152</ele>
        <time>2022-09-19T11:21:53Z</time>
      </trkpt>
      <trkpt lat="47.11026" lon="-0.73174">
        <ele>154</ele>
        <time>2022-09-19T11:22:27Z</time>
      </trkpt>
      <trkpt lat="47.10945" lon="-0.73272">
        <ele>158</ele>
        <time>2022-09-19T11:22:51Z</time>
      </trkpt>
      <trkpt lat="47.10898" lon="-0.73339">
        <ele>159</ele>
        <time>2022-09-19T11:23:06Z</time>
      </trkpt>
      <trkpt lat="47.10862" lon="-0.7337">
        <ele>160</ele>
        <time>2022-09-19T11:23:16Z</time>
      </trkpt>
      <trkpt lat="47.1084" lon="-0.73414">
        <ele>161</ele>
        <time>2022-09-19T11:23:25Z</time>
      </trkpt>
      <trkpt lat="47.10798" lon="-0.73383">
        <ele>161</ele>
        <time>2022-09-19T11:23:36Z</time>
      </trkpt>
      <trkpt lat="47.10781" lon="-0.73343">
        <ele>161</ele>
        <time>2022-09-19T11:23:43Z</time>
      </trkpt>
      <trkpt lat="47.10776" lon="-0.73276">
        <ele>162</ele>
        <time>2022-09-19T11:23:54Z</time>
      </trkpt>
      <trkpt lat="47.10718" lon="-0.73148">
        <ele>162</ele>
        <time>2022-09-19T11:24:18Z</time>
      </trkpt>
      <trkpt lat="47.10691" lon="-0.73099">
        <ele>161</ele>
        <time>2022-09-19T11:24:28Z</time>
      </trkpt>
      <trkpt lat="47.10671" lon="-0.73045">
        <ele>159</ele>
        <time>2022-09-19T11:24:38Z</time>
      </trkpt>
      <trkpt lat="47.10645" lon="-0.72953">
        <ele>156</ele>
        <time>2022-09-19T11:24:54Z</time>
      </trkpt>
      <trkpt lat="47.10636" lon="-0.72906">
        <ele>154</ele>
        <time>2022-09-19T11:25:02Z</time>
      </trkpt>
      <trkpt lat="47.10621" lon="-0.72862">
        <ele>155</ele>
        <time>2022-09-19T11:25:10Z</time>
      </trkpt>
      <trkpt lat="47.10554" lon="-0.7272">
        <ele>156</ele>
        <time>2022-09-19T11:25:37Z</time>
      </trkpt>
      <trkpt lat="47.1053" lon="-0.72692">
        <ele>157</ele>
        <time>2022-09-19T11:25:44Z</time>
      </trkpt>
      <trkpt lat="47.10509" lon="-0.72656">
        <ele>158</ele>
        <time>2022-09-19T11:25:52Z</time>
      </trkpt>
      <trkpt lat="47.10498" lon="-0.7261">
        <ele>158</ele>
        <time>2022-09-19T11:25:59Z</time>
      </trkpt>
      <trkpt lat="47.1048" lon="-0.72572">
        <ele>157</ele>
        <time>2022-09-19T11:26:07Z</time>
      </trkpt>
      <trkpt lat="47.10456" lon="-0.72489">
        <ele>156</ele>
        <time>2022-09-19T11:26:21Z</time>
      </trkpt>
      <trkpt lat="47.10439" lon="-0.72458">
        <ele>157</ele>
        <time>2022-09-19T11:26:28Z</time>
      </trkpt>
      <trkpt lat="47.10427" lon="-0.72428">
        <ele>157</ele>
        <time>2022-09-19T11:26:33Z</time>
      </trkpt>
      <trkpt lat="47.10384" lon="-0.72293">
        <ele>159</ele>
        <time>2022-09-19T11:26:57Z</time>
      </trkpt>
      <trkpt lat="47.10421" lon="-0.72292">
        <ele>157</ele>
        <time>2022-09-19T11:27:05Z</time>
      </trkpt>
      <trkpt lat="47.10452" lon="-0.72296">
        <ele>156</ele>
        <time>2022-09-19T11:27:13Z</time>
      </trkpt>
      <trkpt lat="47.10485" lon="-0.72289">
        <ele>155</ele>
        <time>2022-09-19T11:27:20Z</time>
      </trkpt>
      <trkpt lat="47.10545" lon="-0.72268">
        <ele>154</ele>
        <time>2022-09-19T11:27:35Z</time>
      </trkpt>
      <trkpt lat="47.10589" lon="-0.72262">
        <ele>153</ele>
        <time>2022-09-19T11:27:45Z</time>
      </trkpt>
      <trkpt lat="47.1062" lon="-0.72241">
        <ele>151</ele>
        <time>2022-09-19T11:27:53Z</time>
      </trkpt>
      <trkpt lat="47.10646" lon="-0.72241">
        <ele>151</ele>
        <time>2022-09-19T11:27:59Z</time>
      </trkpt>
      <trkpt lat="47.10699" lon="-0.72218">
        <ele>149</ele>
        <time>2022-09-19T11:28:12Z</time>
      </trkpt>
      <trkpt lat="47.10725" lon="-0.72195">
        <ele>149</ele>
        <time>2022-09-19T11:28:19Z</time>
      </trkpt>
      <trkpt lat="47.10772" lon="-0.7214">
        <ele>148</ele>
        <time>2022-09-19T11:28:33Z</time>
      </trkpt>
      <trkpt lat="47.10799" lon="-0.72118">
        <ele>147</ele>
        <time>2022-09-19T11:28:40Z</time>
      </trkpt>
      <trkpt lat="47.1083" lon="-0.72081">
        <ele>147</ele>
        <time>2022-09-19T11:28:50Z</time>
      </trkpt>
      <trkpt lat="47.10863" lon="-0.72069">
        <ele>146</ele>
        <time>2022-09-19T11:28:58Z</time>
      </trkpt>
      <trkpt lat="47.10966" lon="-0.72067">
        <ele>143</ele>
        <time>2022-09-19T11:29:22Z</time>
      </trkpt>
      <trkpt lat="47.11046" lon="-0.72003">
        <ele>143</ele>
        <time>2022-09-19T11:29:43Z</time>
      </trkpt>
      <trkpt lat="47.10973" lon="-0.71809">
        <ele>146</ele>
        <time>2022-09-19T11:30:18Z</time>
      </trkpt>
      <trkpt lat="47.10923" lon="-0.71597">
        <ele>151</ele>
        <time>2022-09-19T11:30:54Z</time>
      </trkpt>
      <trkpt lat="47.10791" lon="-0.71625">
        <ele>153</ele>
        <time>2022-09-19T11:31:25Z</time>
      </trkpt>
      <trkpt lat="47.10763" lon="-0.71531">
        <ele>156</ele>
        <time>2022-09-19T11:31:41Z</time>
      </trkpt>
      <trkpt lat="47.1073" lon="-0.71449">
        <ele>157</ele>
        <time>2022-09-19T11:31:57Z</time>
      </trkpt>
      <trkpt lat="47.10662" lon="-0.71314">
        <ele>159</ele>
        <time>2022-09-19T11:32:23Z</time>
      </trkpt>
      <trkpt lat="47.10584" lon="-0.71299">
        <ele>159</ele>
        <time>2022-09-19T11:32:42Z</time>
      </trkpt>
      <trkpt lat="47.1054" lon="-0.71334">
        <ele>160</ele>
        <time>2022-09-19T11:32:53Z</time>
      </trkpt>
      <trkpt lat="47.105" lon="-0.71346">
        <ele>160</ele>
        <time>2022-09-19T11:33:03Z</time>
      </trkpt>
      <trkpt lat="47.1047" lon="-0.71295">
        <ele>160</ele>
        <time>2022-09-19T11:33:14Z</time>
      </trkpt>
      <trkpt lat="47.10482" lon="-0.71188">
        <ele>159</ele>
        <time>2022-09-19T11:33:31Z</time>
      </trkpt>
      <trkpt lat="47.10466" lon="-0.71053">
        <ele>157</ele>
        <time>2022-09-19T11:33:53Z</time>
      </trkpt>
      <trkpt lat="47.10451" lon="-0.70987">
        <ele>157</ele>
        <time>2022-09-19T11:34:04Z</time>
      </trkpt>
      <trkpt lat="47.10435" lon="-0.70937">
        <ele>157</ele>
        <time>2022-09-19T11:34:12Z</time>
      </trkpt>
      <trkpt lat="47.10378" lon="-0.70916">
        <ele>158</ele>
        <time>2022-09-19T11:34:26Z</time>
      </trkpt>
      <trkpt lat="47.10263" lon="-0.70813">
        <ele>163</ele>
        <time>2022-09-19T11:34:58Z</time>
      </trkpt>
      <trkpt lat="47.10207" lon="-0.70783">
        <ele>165</ele>
        <time>2022-09-19T11:35:11Z</time>
      </trkpt>
      <trkpt lat="47.10175" lon="-0.70771">
        <ele>167</ele>
        <time>2022-09-19T11:35:19Z</time>
      </trkpt>
      <trkpt lat="47.10156" lon="-0.70755">
        <ele>168</ele>
        <time>2022-09-19T11:35:24Z</time>
      </trkpt>
      <trkpt lat="47.10131" lon="-0.7079">
        <ele>170</ele>
        <time>2022-09-19T11:35:32Z</time>
      </trkpt>
      <trkpt lat="47.10085" lon="-0.70801">
        <ele>174</ele>
        <time>2022-09-19T11:35:43Z</time>
      </trkpt>
      <trkpt lat="47.10057" lon="-0.70817">
        <ele>176</ele>
        <time>2022-09-19T11:35:50Z</time>
      </trkpt>
      <trkpt lat="47.1009" lon="-0.70849">
        <ele>174</ele>
        <time>2022-09-19T11:36:00Z</time>
      </trkpt>
      <trkpt lat="47.10082" lon="-0.70905">
        <ele>174</ele>
        <time>2022-09-19T11:36:09Z</time>
      </trkpt>
      <trkpt lat="47.10051" lon="-0.71005">
        <ele>174</ele>
        <time>2022-09-19T11:36:26Z</time>
      </trkpt>
      <trkpt lat="47.10027" lon="-0.71131">
        <ele>174</ele>
        <time>2022-09-19T11:36:47Z</time>
      </trkpt>
      <trkpt lat="47.09996" lon="-0.7121">
        <ele>175</ele>
        <time>2022-09-19T11:37:01Z</time>
      </trkpt>
      <trkpt lat="47.09984" lon="-0.71266">
        <ele>175</ele>
        <time>2022-09-19T11:37:11Z</time>
      </trkpt>
      <trkpt lat="47.09983" lon="-0.71329">
        <ele>175</ele>
        <time>2022-09-19T11:37:21Z</time>
      </trkpt>
      <trkpt lat="47.09891" lon="-0.71335">
        <ele>178</ele>
        <time>2022-09-19T11:37:42Z</time>
      </trkpt>
      <trkpt lat="47.09842" lon="-0.71362">
        <ele>180</ele>
        <time>2022-09-19T11:37:54Z</time>
      </trkpt>
      <trkpt lat="47.09774" lon="-0.71353">
        <ele>182</ele>
        <time>2022-09-19T11:38:10Z</time>
      </trkpt>
      <trkpt lat="47.09756" lon="-0.71531">
        <ele>185</ele>
        <time>2022-09-19T11:38:39Z</time>
      </trkpt>
      <trkpt lat="47.09742" lon="-0.71598">
        <ele>185</ele>
        <time>2022-09-19T11:38:50Z</time>
      </trkpt>
      <trkpt lat="47.09684" lon="-0.71679">
        <ele>186</ele>
        <time>2022-09-19T11:39:09Z</time>
      </trkpt>
      <trkpt lat="47.09649" lon="-0.71718">
        <ele>187</ele>
        <time>2022-09-19T11:39:19Z</time>
      </trkpt>
      <trkpt lat="47.09614" lon="-0.71783">
        <ele>188</ele>
        <time>2022-09-19T11:39:32Z</time>
      </trkpt>
      <trkpt lat="47.09549" lon="-0.71805">
        <ele>188</ele>
        <time>2022-09-19T11:39:48Z</time>
      </trkpt>
      <trkpt lat="47.09549" lon="-0.71889">
        <ele>188</ele>
        <time>2022-09-19T11:40:01Z</time>
      </trkpt>
      <trkpt lat="47.0956" lon="-0.71982">
        <ele>186</ele>
        <time>2022-09-19T11:40:16Z</time>
      </trkpt>
      <trkpt lat="47.09554" lon="-0.72048">
        <ele>185</ele>
        <time>2022-09-19T11:40:27Z</time>
      </trkpt>
      <trkpt lat="47.09563" lon="-0.72314">
        <ele>181</ele>
        <time>2022-09-19T11:41:09Z</time>
      </trkpt>
      <trkpt lat="47.09553" lon="-0.7242">
        <ele>179</ele>
        <time>2022-09-19T11:41:26Z</time>
      </trkpt>
      <trkpt lat="47.09514" lon="-0.72501">
        <ele>178</ele>
        <time>2022-09-19T11:41:42Z</time>
      </trkpt>
      <trkpt lat="47.09496" lon="-0.72604">
        <ele>179</ele>
        <time>2022-09-19T11:41:59Z</time>
      </trkpt>
      <trkpt lat="47.09459" lon="-0.72736">
        <ele>179</ele>
        <time>2022-09-19T11:42:22Z</time>
      </trkpt>
      <trkpt lat="47.09433" lon="-0.72888">
        <ele>178</ele>
        <time>2022-09-19T11:42:46Z</time>
      </trkpt>
      <trkpt lat="47.09421" lon="-0.72976">
        <ele>179</ele>
        <time>2022-09-19T11:43:01Z</time>
      </trkpt>
      <trkpt lat="47.09445" lon="-0.73155">
        <ele>179</ele>
        <time>2022-09-19T11:43:30Z</time>
      </trkpt>
      <trkpt lat="47.09458" lon="-0.73194">
        <ele>180</ele>
        <time>2022-09-19T11:43:37Z</time>
      </trkpt>
      <trkpt lat="47.09475" lon="-0.7323">
        <ele>180</ele>
        <time>2022-09-19T11:43:44Z</time>
      </trkpt>
      <trkpt lat="47.09537" lon="-0.73296">
        <ele>179</ele>
        <time>2022-09-19T11:44:01Z</time>
      </trkpt>
      <trkpt lat="47.09457" lon="-0.7331">
        <ele>180</ele>
        <time>2022-09-19T11:44:20Z</time>
      </trkpt>
      <trkpt lat="47.094" lon="-0.73348">
        <ele>182</ele>
        <time>2022-09-19T11:44:35Z</time>
      </trkpt>
      <trkpt lat="47.09363" lon="-0.73419">
        <ele>182</ele>
        <time>2022-09-19T11:44:49Z</time>
      </trkpt>
      <trkpt lat="47.09345" lon="-0.73472">
        <ele>183</ele>
        <time>2022-09-19T11:44:59Z</time>
      </trkpt>
      <trkpt lat="47.09302" lon="-0.73471">
        <ele>184</ele>
        <time>2022-09-19T11:45:09Z</time>
      </trkpt>
      <trkpt lat="47.09261" lon="-0.73515">
        <ele>186</ele>
        <time>2022-09-19T11:45:20Z</time>
      </trkpt>
      <trkpt lat="47.09223" lon="-0.73508">
        <ele>188</ele>
        <time>2022-09-19T11:45:29Z</time>
      </trkpt>
      <trkpt lat="47.09161" lon="-0.73625">
        <ele>190</ele>
        <time>2022-09-19T11:45:53Z</time>
      </trkpt>
      <trkpt lat="47.09118" lon="-0.73689">
        <ele>191</ele>
        <time>2022-09-19T11:46:07Z</time>
      </trkpt>
      <trkpt lat="47.09088" lon="-0.73791">
        <ele>191</ele>
        <time>2022-09-19T11:46:25Z</time>
      </trkpt>
      <trkpt lat="47.09054" lon="-0.73842">
        <ele>192</ele>
        <time>2022-09-19T11:46:36Z</time>
      </trkpt>
      <trkpt lat="47.08904" lon="-0.73917">
        <ele>193</ele>
        <time>2022-09-19T11:47:13Z</time>
      </trkpt>
      <trkpt lat="47.08837" lon="-0.73926">
        <ele>191</ele>
        <time>2022-09-19T11:47:29Z</time>
      </trkpt>
      <trkpt lat="47.08758" lon="-0.73973">
        <ele>183</ele>
        <time>2022-09-19T11:47:49Z</time>
      </trkpt>
      <trkpt lat="47.08438" lon="-0.73995">
        <ele>185</ele>
        <time>2022-09-19T11:49:04Z</time>
      </trkpt>
      <trkpt lat="47.08474" lon="-0.74186">
        <ele>183</ele>
        <time>2022-09-19T11:49:35Z</time>
      </trkpt>
      <trkpt lat="47.08399" lon="-0.74255">
        <ele>185</ele>
        <time>2022-09-19T11:49:56Z</time>
      </trkpt>
      <trkpt lat="47.08351" lon="-0.74313">
        <ele>185</ele>
        <time>2022-09-19T11:50:10Z</time>
      </trkpt>
      <trkpt lat="47.08264" lon="-0.74558">
        <ele>178</ele>
        <time>2022-09-19T11:50:54Z</time>
      </trkpt>
      <trkpt lat="47.08355" lon="-0.74859">
        <ele>173</ele>
        <time>2022-09-19T11:51:47Z</time>
      </trkpt>
      <trkpt lat="47.08557" lon="-0.75262">
        <ele>175</ele>
        <time>2022-09-19T11:53:06Z</time>
      </trkpt>
      <trkpt lat="47.08616" lon="-0.75512">
        <ele>175</ele>
        <time>2022-09-19T11:53:48Z</time>
      </trkpt>
      <trkpt lat="47.08649" lon="-0.75632">
        <ele>176</ele>
        <time>2022-09-19T11:54:09Z</time>
      </trkpt>
      <trkpt lat="47.08626" lon="-0.75704">
        <ele>175</ele>
        <time>2022-09-19T11:54:22Z</time>
      </trkpt>
      <trkpt lat="47.08552" lon="-0.75799">
        <ele>175</ele>
        <time>2022-09-19T11:54:45Z</time>
      </trkpt>
      <trkpt lat="47.08495" lon="-0.75904">
        <ele>176</ele>
        <time>2022-09-19T11:55:06Z</time>
      </trkpt>
      <trkpt lat="47.08421" lon="-0.76001">
        <ele>178</ele>
        <time>2022-09-19T11:55:29Z</time>
      </trkpt>
      <trkpt lat="47.08361" lon="-0.76184">
        <ele>174</ele>
        <time>2022-09-19T11:56:01Z</time>
      </trkpt>
      <trkpt lat="47.08331" lon="-0.76388">
        <ele>175</ele>
        <time>2022-09-19T11:56:35Z</time>
      </trkpt>
      <trkpt lat="47.08314" lon="-0.76485">
        <ele>172</ele>
        <time>2022-09-19T11:56:50Z</time>
      </trkpt>
      <trkpt lat="47.08328" lon="-0.76647">
        <ele>169</ele>
        <time>2022-09-19T11:57:16Z</time>
      </trkpt>
      <trkpt lat="47.08331" lon="-0.76734">
        <ele>170</ele>
        <time>2022-09-19T11:57:30Z</time>
      </trkpt>
      <trkpt lat="47.08341" lon="-0.76864">
        <ele>170</ele>
        <time>2022-09-19T11:57:51Z</time>
      </trkpt>
      <trkpt lat="47.08308" lon="-0.7692">
        <ele>170</ele>
        <time>2022-09-19T11:58:03Z</time>
      </trkpt>
      <trkpt lat="47.08301" lon="-0.77053">
        <ele>171</ele>
        <time>2022-09-19T11:58:24Z</time>
      </trkpt>
      <trkpt lat="47.08326" lon="-0.77214">
        <ele>168</ele>
        <time>2022-09-19T11:58:50Z</time>
      </trkpt>
      <trkpt lat="47.08265" lon="-0.77353">
        <ele>167</ele>
        <time>2022-09-19T11:59:17Z</time>
      </trkpt>
      <trkpt lat="47.08233" lon="-0.77436">
        <ele>165</ele>
        <time>2022-09-19T11:59:32Z</time>
      </trkpt>
      <trkpt lat="47.07923" lon="-0.78437">
        <ele>164</ele>
        <time>2022-09-19T12:02:27Z</time>
      </trkpt>
      <trkpt lat="47.07787" lon="-0.78688">
        <ele>165</ele>
        <time>2022-09-19T12:03:18Z</time>
      </trkpt>
      <trkpt lat="47.07341" lon="-0.79482">
        <ele>158</ele>
        <time>2022-09-19T12:06:01Z</time>
      </trkpt>
      <trkpt lat="47.07251" lon="-0.79666">
        <ele>155</ele>
        <time>2022-09-19T12:06:37Z</time>
      </trkpt>
      <trkpt lat="47.07223" lon="-0.79735">
        <ele>154</ele>
        <time>2022-09-19T12:06:50Z</time>
      </trkpt>
      <trkpt lat="47.07216" lon="-0.80009">
        <ele>146</ele>
        <time>2022-09-19T12:07:34Z</time>
      </trkpt>
      <trkpt lat="47.07189" lon="-0.80509">
        <ele>137</ele>
        <time>2022-09-19T12:08:54Z</time>
      </trkpt>
      <trkpt lat="47.07082" lon="-0.80664">
        <ele>137</ele>
        <time>2022-09-19T12:09:29Z</time>
      </trkpt>
      <trkpt lat="47.06928" lon="-0.80826">
        <ele>135</ele>
        <time>2022-09-19T12:10:13Z</time>
      </trkpt>
      <trkpt lat="47.06817" lon="-0.81027">
        <ele>135</ele>
        <time>2022-09-19T12:10:54Z</time>
      </trkpt>
      <trkpt lat="47.06735" lon="-0.81223">
        <ele>132</ele>
        <time>2022-09-19T12:11:31Z</time>
      </trkpt>
      <trkpt lat="47.06601" lon="-0.81209">
        <ele>133</ele>
        <time>2022-09-19T12:12:02Z</time>
      </trkpt>
      <trkpt lat="47.0635" lon="-0.81218">
        <ele>137</ele>
        <time>2022-09-19T12:13:01Z</time>
      </trkpt>
      <trkpt lat="47.06323" lon="-0.8124">
        <ele>138</ele>
        <time>2022-09-19T12:13:08Z</time>
      </trkpt>
      <trkpt lat="47.05855" lon="-0.8124">
        <ele>145</ele>
        <time>2022-09-19T12:14:57Z</time>
      </trkpt>
      <trkpt lat="47.05828" lon="-0.81194">
        <ele>146</ele>
        <time>2022-09-19T12:15:07Z</time>
      </trkpt>
      <trkpt lat="47.05714" lon="-0.81252">
        <ele>149</ele>
        <time>2022-09-19T12:15:35Z</time>
      </trkpt>
      <trkpt lat="47.0556" lon="-0.81323">
        <ele>151</ele>
        <time>2022-09-19T12:16:13Z</time>
      </trkpt>
      <trkpt lat="47.05478" lon="-0.81297">
        <ele>150</ele>
        <time>2022-09-19T12:16:32Z</time>
      </trkpt>
      <trkpt lat="47.05403" lon="-0.81236">
        <ele>147</ele>
        <time>2022-09-19T12:16:52Z</time>
      </trkpt>
      <trkpt lat="47.05301" lon="-0.81261">
        <ele>144</ele>
        <time>2022-09-19T12:17:16Z</time>
      </trkpt>
      <trkpt lat="47.0513" lon="-0.81254">
        <ele>139</ele>
        <time>2022-09-19T12:17:56Z</time>
      </trkpt>
      <trkpt lat="47.05106" lon="-0.8127">
        <ele>138</ele>
        <time>2022-09-19T12:18:03Z</time>
      </trkpt>
      <trkpt lat="47.05087" lon="-0.81243">
        <ele>138</ele>
        <time>2022-09-19T12:18:09Z</time>
      </trkpt>
      <trkpt lat="47.04946" lon="-0.81333">
        <ele>132</ele>
        <time>2022-09-19T12:18:45Z</time>
      </trkpt>
      <trkpt lat="47.04886" lon="-0.81416">
        <ele>129</ele>
        <time>2022-09-19T12:19:04Z</time>
      </trkpt>
      <trkpt lat="47.04867" lon="-0.81417">
        <ele>128</ele>
        <time>2022-09-19T12:19:08Z</time>
      </trkpt>
      <trkpt lat="47.04861" lon="-0.81445">
        <ele>128</ele>
        <time>2022-09-19T12:19:13Z</time>
      </trkpt>
      <trkpt lat="47.04792" lon="-0.81502">
        <ele>125</ele>
        <time>2022-09-19T12:19:31Z</time>
      </trkpt>
      <trkpt lat="47.04656" lon="-0.81604">
        <ele>120</ele>
        <time>2022-09-19T12:20:07Z</time>
      </trkpt>
      <trkpt lat="47.04625" lon="-0.81607">
        <ele>120</ele>
        <time>2022-09-19T12:20:14Z</time>
      </trkpt>
      <trkpt lat="47.04569" lon="-0.81744">
        <ele>120</ele>
        <time>2022-09-19T12:20:40Z</time>
      </trkpt>
      <trkpt lat="47.04552" lon="-0.81779">
        <ele>120</ele>
        <time>2022-09-19T12:20:47Z</time>
      </trkpt>
    </trkseg>
  </trk>
</gpx>